PTMAX SBSV-SDIH
Flight info
| Callsign | PTMAX |
|---|---|
| Flight time | 5h 4m |
| Altitude | 5500 |
| Route | REA DCT 1257S03821W 1301S03828W 1300S03831W 1307S03847W 1323S03854W 1629S03904W 1643S03906W 1952S04005W 2003S04011W 2011S04011W 2231S04204W 2257S04229W 2302S04300W 2305S04328W 2314S04407W 2318S04427W 2331S04504W 2331S04550W DCT |
| Aircraft | SR22/L-SDGRY/S |
Departure
| Time | 2026-05-04 22:59 |
|---|---|
| Airport | Deputado Luiz Eduardo Magalhães International Airport (SBSV) |
Arrival
| Time | 2026-05-05 04:04 |
|---|---|
| Airport | Fazenda Irohy Airport (SDIH) |
| Time | Latitude | Longitude | Altitude | Speed | Heading |
|---|---|---|---|---|---|
| 2026-05-04 22:16 | -12.91595 | -38.34116 | 36 ft | 0 kts | 144° |
| 2026-05-04 22:51 | -12.91599 | -38.34114 | 36 ft | 1 kts | 165° |
| 2026-05-04 22:52 | -12.91604 | -38.34112 | 36 ft | 0 kts | 149° |
| 2026-05-04 22:53 | -12.91603 | -38.34112 | 37 ft | 3 kts | 149° |
| 2026-05-04 22:53 | -12.91586 | -38.34124 | 36 ft | 3 kts | 148° |
| 2026-05-04 22:54 | -12.91572 | -38.34138 | 36 ft | 3 kts | 103° |
| 2026-05-04 22:54 | -12.91572 | -38.34140 | 36 ft | 0 kts | 97° |
| 2026-05-04 22:54 | -12.91565 | -38.34125 | 36 ft | 7 kts | 56° |
| 2026-05-04 22:55 | -12.91518 | -38.34056 | 36 ft | 16 kts | 54° |
| 2026-05-04 22:55 | -12.91464 | -38.33981 | 37 ft | 5 kts | 51° |
| 2026-05-04 22:55 | -12.91445 | -38.33957 | 37 ft | 8 kts | 53° |
| 2026-05-04 22:55 | -12.91382 | -38.33868 | 36 ft | 21 kts | 53° |
| 2026-05-04 22:56 | -12.91293 | -38.33809 | 35 ft | 18 kts | 326° |
| 2026-05-04 22:56 | -12.91175 | -38.33898 | 35 ft | 24 kts | 324° |
| 2026-05-04 22:56 | -12.91046 | -38.33994 | 35 ft | 22 kts | 324° |
| 2026-05-04 22:56 | -12.90906 | -38.34096 | 34 ft | 27 kts | 323° |
| 2026-05-04 22:57 | -12.90791 | -38.34194 | 33 ft | 16 kts | 284° |
| 2026-05-04 22:57 | -12.90789 | -38.34261 | 33 ft | 0 kts | 274° |
| 2026-05-04 22:58 | -12.90789 | -38.34264 | 33 ft | 3 kts | 272° |
| 2026-05-04 22:58 | -12.90797 | -38.34329 | 34 ft | 11 kts | 213° |
| 2026-05-04 22:58 | -12.90873 | -38.34301 | 35 ft | 27 kts | 143° |
| 2026-05-04 22:58 | -12.91208 | -38.34053 | 38 ft | 84 kts | 143° |
| 2026-05-04 22:59 | -12.91710 | -38.33655 | 211 ft | 94 kts | 143° |
| 2026-05-04 22:59 | -12.92226 | -38.33270 | 497 ft | 89 kts | 151° |
| 2026-05-04 22:59 | -12.92813 | -38.32971 | 636 ft | 100 kts | 165° |
| 2026-05-04 22:59 | -12.93520 | -38.33166 | 780 ft | 117 kts | 211° |
| 2026-05-04 23:00 | -12.94103 | -38.33806 | 934 ft | 133 kts | 233° |
| 2026-05-04 23:00 | -12.94532 | -38.34710 | 1110 ft | 147 kts | 239° |
| 2026-05-04 23:00 | -12.94991 | -38.35691 | 1251 ft | 161 kts | 240° |
| 2026-05-04 23:00 | -12.95499 | -38.36755 | 1251 ft | 168 kts | 240° |
| 2026-05-04 23:01 | -12.95968 | -38.37871 | 1244 ft | 173 kts | 245° |
| 2026-05-04 23:01 | -12.96420 | -38.39020 | 1249 ft | 174 kts | 244° |
| 2026-05-04 23:01 | -12.96855 | -38.40173 | 1243 ft | 173 kts | 245° |
| 2026-05-04 23:01 | -12.97305 | -38.41328 | 1251 ft | 177 kts | 244° |
| 2026-05-04 23:02 | -12.97784 | -38.42521 | 1243 ft | 183 kts | 244° |
| 2026-05-04 23:02 | -12.98254 | -38.43743 | 1245 ft | 185 kts | 244° |
| 2026-05-04 23:02 | -12.98720 | -38.44984 | 1245 ft | 188 kts | 245° |
| 2026-05-04 23:02 | -12.99195 | -38.46232 | 1244 ft | 188 kts | 245° |
| 2026-05-04 23:03 | -12.99326 | -38.47559 | 1239 ft | 189 kts | 274° |
| 2026-05-04 23:03 | -12.99155 | -38.48887 | 1243 ft | 188 kts | 274° |
| 2026-05-04 23:03 | -12.98985 | -38.50209 | 1234 ft | 186 kts | 275° |
| 2026-05-04 23:03 | -12.98812 | -38.51520 | 1244 ft | 186 kts | 275° |
| 2026-05-04 23:04 | -12.98650 | -38.52837 | 1235 ft | 185 kts | 274° |
| 2026-05-04 23:04 | -12.98822 | -38.54098 | 1230 ft | 177 kts | 245° |
| 2026-05-04 23:04 | -12.99295 | -38.55255 | 1227 ft | 176 kts | 243° |
| 2026-05-04 23:04 | -12.99751 | -38.56411 | 1233 ft | 174 kts | 243° |
| 2026-05-04 23:05 | -13.00210 | -38.57559 | 1233 ft | 174 kts | 244° |
| 2026-05-04 23:05 | -13.00663 | -38.58702 | 1235 ft | 177 kts | 243° |
| 2026-05-04 23:05 | -13.01136 | -38.59867 | 1235 ft | 177 kts | 242° |
| 2026-05-04 23:05 | -13.01634 | -38.61022 | 1227 ft | 178 kts | 242° |
| 2026-05-04 23:06 | -13.02140 | -38.62178 | 1233 ft | 177 kts | 242° |
| 2026-05-04 23:06 | -13.02654 | -38.63319 | 1235 ft | 176 kts | 241° |
| 2026-05-04 23:06 | -13.03162 | -38.64464 | 1235 ft | 176 kts | 241° |
| 2026-05-04 23:06 | -13.03664 | -38.65610 | 1234 ft | 175 kts | 242° |
| 2026-05-04 23:07 | -13.04169 | -38.66743 | 1236 ft | 174 kts | 241° |
| 2026-05-04 23:07 | -13.04667 | -38.67880 | 1243 ft | 176 kts | 241° |
| 2026-05-04 23:07 | -13.05168 | -38.69029 | 1259 ft | 177 kts | 241° |
| 2026-05-04 23:07 | -13.05692 | -38.70192 | 1256 ft | 181 kts | 243° |
| 2026-05-04 23:08 | -13.06242 | -38.71366 | 1242 ft | 183 kts | 239° |
| 2026-05-04 23:08 | -13.06786 | -38.72546 | 1248 ft | 183 kts | 241° |
| 2026-05-04 23:08 | -13.07343 | -38.73724 | 1236 ft | 184 kts | 240° |
| 2026-05-04 23:08 | -13.07903 | -38.74888 | 1235 ft | 179 kts | 239° |
| 2026-05-04 23:09 | -13.08451 | -38.76025 | 1237 ft | 178 kts | 240° |
| 2026-05-04 23:09 | -13.08996 | -38.77161 | 1239 ft | 177 kts | 239° |
| 2026-05-04 23:09 | -13.09531 | -38.78304 | 1235 ft | 178 kts | 241° |
| 2026-05-04 23:09 | -13.10078 | -38.79445 | 1234 ft | 178 kts | 239° |
| 2026-05-04 23:10 | -13.10875 | -38.80355 | 1241 ft | 170 kts | 207° |
| 2026-05-04 23:10 | -13.11914 | -38.80919 | 1246 ft | 170 kts | 203° |
| 2026-05-04 23:10 | -13.12955 | -38.81493 | 1244 ft | 169 kts | 204° |
| 2026-05-04 23:10 | -13.13996 | -38.82042 | 1244 ft | 169 kts | 202° |
| 2026-05-04 23:11 | -13.15039 | -38.82561 | 1246 ft | 169 kts | 202° |
| 2026-05-04 23:11 | -13.16104 | -38.83076 | 1253 ft | 169 kts | 202° |
| 2026-05-04 23:11 | -13.17172 | -38.83597 | 1246 ft | 170 kts | 202° |
| 2026-05-04 23:11 | -13.18240 | -38.84112 | 1247 ft | 170 kts | 202° |
| 2026-05-04 23:12 | -13.19303 | -38.84625 | 1291 ft | 166 kts | 202° |
| 2026-05-04 23:12 | -13.20325 | -38.85115 | 1434 ft | 159 kts | 201° |
| 2026-05-04 23:12 | -13.21316 | -38.85581 | 1576 ft | 155 kts | 201° |
| 2026-05-04 23:12 | -13.22282 | -38.86055 | 1712 ft | 153 kts | 201° |
| 2026-05-04 23:13 | -13.23236 | -38.86535 | 1827 ft | 153 kts | 201° |
| 2026-05-04 23:13 | -13.24189 | -38.87022 | 1929 ft | 154 kts | 201° |
| 2026-05-04 23:13 | -13.25159 | -38.87490 | 2028 ft | 154 kts | 197° |
| 2026-05-04 23:13 | -13.26182 | -38.87850 | 2045 ft | 157 kts | 194° |
| 2026-05-04 23:14 | -13.27234 | -38.88200 | 2048 ft | 160 kts | 194° |
| 2026-05-04 23:14 | -13.28310 | -38.88544 | 2049 ft | 163 kts | 194° |
| 2026-05-04 23:14 | -13.29398 | -38.88892 | 2053 ft | 164 kts | 193° |
| 2026-05-04 23:14 | -13.30488 | -38.89257 | 2059 ft | 165 kts | 194° |
| 2026-05-04 23:15 | -13.31583 | -38.89618 | 2060 ft | 166 kts | 193° |
| 2026-05-04 23:15 | -13.32680 | -38.89968 | 2061 ft | 165 kts | 193° |
| 2026-05-04 23:15 | -13.33771 | -38.90324 | 2062 ft | 165 kts | 194° |
| 2026-05-04 23:15 | -13.34865 | -38.90684 | 2101 ft | 164 kts | 194° |
| 2026-05-04 23:16 | -13.35959 | -38.91033 | 2120 ft | 165 kts | 193° |
| 2026-05-04 23:16 | -13.37052 | -38.91391 | 2185 ft | 164 kts | 193° |
| 2026-05-04 23:16 | -13.38136 | -38.91755 | 2378 ft | 164 kts | 194° |
| 2026-05-04 23:16 | -13.39227 | -38.92096 | 2499 ft | 165 kts | 193° |
| 2026-05-04 23:17 | -13.40329 | -38.92441 | 2520 ft | 167 kts | 193° |
| 2026-05-04 23:17 | -13.41427 | -38.92811 | 2560 ft | 165 kts | 194° |
| 2026-05-04 23:17 | -13.42482 | -38.93164 | 2561 ft | 147 kts | 195° |
| 2026-05-04 23:17 | -13.43369 | -38.93471 | 2558 ft | 124 kts | 194° |
| 2026-05-04 23:18 | -13.44125 | -38.93743 | 2745 ft | 108 kts | 194° |
| 2026-05-04 23:18 | -13.44807 | -38.93981 | 2659 ft | 97 kts | 190° |
| 2026-05-04 23:18 | -13.45560 | -38.94104 | 2617 ft | 124 kts | 184° |
| 2026-05-04 23:18 | -13.46444 | -38.94364 | 2942 ft | 137 kts | 195° |
| 2026-05-04 23:19 | -13.47396 | -38.94668 | 3106 ft | 149 kts | 194° |
| 2026-05-04 23:19 | -13.48418 | -38.94924 | 3266 ft | 154 kts | 186° |
| 2026-05-04 23:19 | -13.49500 | -38.95042 | 3435 ft | 159 kts | 181° |
| 2026-05-04 23:19 | -13.50613 | -38.95151 | 3537 ft | 162 kts | 182° |
| 2026-05-04 23:20 | -13.51745 | -38.95257 | 3628 ft | 164 kts | 182° |
| 2026-05-04 23:20 | -13.52883 | -38.95368 | 3701 ft | 164 kts | 182° |
| 2026-05-04 23:20 | -13.54021 | -38.95489 | 3795 ft | 165 kts | 182° |
| 2026-05-04 23:20 | -13.55161 | -38.95614 | 3854 ft | 165 kts | 183° |
| 2026-05-04 23:21 | -13.56305 | -38.95720 | 3925 ft | 165 kts | 182° |
| 2026-05-04 23:21 | -13.57452 | -38.95830 | 4028 ft | 166 kts | 182° |
| 2026-05-04 23:21 | -13.58594 | -38.95966 | 4194 ft | 165 kts | 182° |
| 2026-05-04 23:21 | -13.59736 | -38.96094 | 4313 ft | 165 kts | 182° |
| 2026-05-04 23:22 | -13.60877 | -38.96218 | 4343 ft | 165 kts | 182° |
| 2026-05-04 23:22 | -13.62020 | -38.96345 | 4388 ft | 166 kts | 183° |
| 2026-05-04 23:22 | -13.63168 | -38.96482 | 4480 ft | 166 kts | 182° |
| 2026-05-04 23:22 | -13.64319 | -38.96605 | 4530 ft | 166 kts | 181° |
| 2026-05-04 23:23 | -13.65467 | -38.96736 | 4566 ft | 166 kts | 182° |
| 2026-05-04 23:23 | -13.66617 | -38.96864 | 4598 ft | 166 kts | 182° |
| 2026-05-04 23:23 | -13.67768 | -38.96992 | 4644 ft | 167 kts | 182° |
| 2026-05-04 23:23 | -13.68922 | -38.97124 | 4763 ft | 167 kts | 182° |
| 2026-05-04 23:24 | -13.70077 | -38.97256 | 4850 ft | 167 kts | 182° |
| 2026-05-04 23:24 | -13.71233 | -38.97392 | 4883 ft | 167 kts | 182° |
| 2026-05-04 23:24 | -13.72388 | -38.97525 | 4917 ft | 167 kts | 182° |
| 2026-05-04 23:24 | -13.73544 | -38.97652 | 4949 ft | 167 kts | 182° |
| 2026-05-04 23:25 | -13.74703 | -38.97763 | 4979 ft | 167 kts | 181° |
| 2026-05-04 23:25 | -13.75859 | -38.97876 | 5012 ft | 167 kts | 181° |
| 2026-05-04 23:25 | -13.77014 | -38.97987 | 5036 ft | 167 kts | 181° |
| 2026-05-04 23:25 | -13.78169 | -38.98096 | 5066 ft | 167 kts | 181° |
| 2026-05-04 23:26 | -13.79328 | -38.98203 | 5092 ft | 167 kts | 181° |
| 2026-05-04 23:26 | -13.80487 | -38.98309 | 5115 ft | 167 kts | 181° |
| 2026-05-04 23:26 | -13.81643 | -38.98415 | 5139 ft | 167 kts | 181° |
| 2026-05-04 23:26 | -13.82799 | -38.98521 | 5215 ft | 167 kts | 181° |
| 2026-05-04 23:27 | -13.83955 | -38.98642 | 5276 ft | 167 kts | 182° |
| 2026-05-04 23:27 | -13.85114 | -38.98753 | 5347 ft | 167 kts | 181° |
| 2026-05-04 23:27 | -13.86274 | -38.98843 | 5367 ft | 167 kts | 180° |
| 2026-05-04 23:27 | -13.87433 | -38.98897 | 5387 ft | 167 kts | 179° |
| 2026-05-04 23:28 | -13.88593 | -38.98948 | 5405 ft | 167 kts | 179° |
| 2026-05-04 23:28 | -13.89739 | -38.99003 | 5438 ft | 167 kts | 179° |
| 2026-05-04 23:28 | -13.90899 | -38.99064 | 5468 ft | 167 kts | 179° |
| 2026-05-04 23:28 | -13.92060 | -38.99126 | 5504 ft | 167 kts | 179° |
| 2026-05-04 23:29 | -13.93224 | -38.99200 | 5539 ft | 168 kts | 180° |
| 2026-05-04 23:29 | -13.94390 | -38.99255 | 5561 ft | 169 kts | 179° |
| 2026-05-04 23:29 | -13.95565 | -38.99314 | 5563 ft | 170 kts | 179° |
| 2026-05-04 23:29 | -13.96746 | -38.99372 | 5565 ft | 170 kts | 179° |
| 2026-05-04 23:30 | -13.97933 | -38.99434 | 5563 ft | 171 kts | 179° |
| 2026-05-04 23:30 | -13.99121 | -38.99496 | 5567 ft | 171 kts | 179° |
| 2026-05-04 23:30 | -14.00310 | -38.99559 | 5565 ft | 171 kts | 179° |
| 2026-05-04 23:30 | -14.01500 | -38.99617 | 5595 ft | 171 kts | 179° |
| 2026-05-04 23:31 | -14.02285 | -38.99653 | 5613 ft | 170 kts | 179° |
| 2026-05-04 23:31 | -14.03483 | -38.99696 | 5613 ft | 173 kts | 179° |
| 2026-05-04 23:31 | -14.04683 | -38.99759 | 5613 ft | 173 kts | 179° |
| 2026-05-04 23:31 | -14.05909 | -38.99828 | 5613 ft | 178 kts | 180° |
| 2026-05-04 23:32 | -14.07134 | -38.99895 | 5614 ft | 175 kts | 179° |
| 2026-05-04 23:32 | -14.08345 | -38.99953 | 5613 ft | 174 kts | 179° |
| 2026-05-04 23:32 | -14.09550 | -39.00010 | 5611 ft | 173 kts | 179° |
| 2026-05-04 23:32 | -14.10750 | -39.00065 | 5610 ft | 173 kts | 179° |
| 2026-05-04 23:33 | -14.11949 | -39.00120 | 5612 ft | 172 kts | 179° |
| 2026-05-04 23:33 | -14.13147 | -39.00173 | 5610 ft | 172 kts | 179° |
| 2026-05-04 23:33 | -14.14344 | -39.00223 | 5626 ft | 174 kts | 180° |
| 2026-05-04 23:33 | -14.15563 | -39.00275 | 5617 ft | 175 kts | 179° |
| 2026-05-04 23:34 | -14.16786 | -39.00336 | 5616 ft | 176 kts | 179° |
| 2026-05-04 23:34 | -14.17999 | -39.00395 | 5615 ft | 174 kts | 179° |
| 2026-05-04 23:34 | -14.19205 | -39.00450 | 5616 ft | 173 kts | 179° |
| 2026-05-04 23:34 | -14.20410 | -39.00502 | 5620 ft | 176 kts | 179° |
| 2026-05-04 23:35 | -14.21627 | -39.00545 | 5615 ft | 174 kts | 179° |
| 2026-05-04 23:35 | -14.22844 | -39.00602 | 5623 ft | 176 kts | 179° |
| 2026-05-04 23:35 | -14.24066 | -39.00665 | 5619 ft | 176 kts | 179° |
| 2026-05-04 23:35 | -14.25283 | -39.00724 | 5616 ft | 174 kts | 179° |
| 2026-05-04 23:36 | -14.26488 | -39.00779 | 5613 ft | 173 kts | 179° |
| 2026-05-04 23:36 | -14.27685 | -39.00830 | 5614 ft | 171 kts | 179° |
| 2026-05-04 23:36 | -14.28869 | -39.00880 | 5616 ft | 170 kts | 179° |
| 2026-05-04 23:36 | -14.30052 | -39.00926 | 5619 ft | 170 kts | 179° |
| 2026-05-04 23:37 | -14.31237 | -39.00970 | 5615 ft | 170 kts | 179° |
| 2026-05-04 23:37 | -14.32418 | -39.01020 | 5616 ft | 170 kts | 179° |
| 2026-05-04 23:37 | -14.33598 | -39.01067 | 5618 ft | 170 kts | 179° |
| 2026-05-04 23:37 | -14.34776 | -39.01115 | 5619 ft | 169 kts | 180° |
| 2026-05-04 23:38 | -14.35956 | -39.01152 | 5621 ft | 170 kts | 179° |
| 2026-05-04 23:38 | -14.37139 | -39.01190 | 5620 ft | 171 kts | 179° |
| 2026-05-04 23:38 | -14.38334 | -39.01231 | 5630 ft | 172 kts | 179° |
| 2026-05-04 23:38 | -14.39532 | -39.01282 | 5622 ft | 172 kts | 180° |
| 2026-05-04 23:39 | -14.40730 | -39.01332 | 5622 ft | 172 kts | 179° |
| 2026-05-04 23:39 | -14.41923 | -39.01377 | 5623 ft | 171 kts | 179° |
| 2026-05-04 23:39 | -14.43113 | -39.01411 | 5622 ft | 171 kts | 179° |
| 2026-05-04 23:39 | -14.44300 | -39.01445 | 5618 ft | 170 kts | 179° |
| 2026-05-04 23:40 | -14.45482 | -39.01482 | 5618 ft | 170 kts | 179° |
| 2026-05-04 23:40 | -14.46665 | -39.01526 | 5618 ft | 171 kts | 179° |
| 2026-05-04 23:40 | -14.47852 | -39.01567 | 5617 ft | 171 kts | 180° |
| 2026-05-04 23:40 | -14.49041 | -39.01645 | 5618 ft | 171 kts | 181° |
| 2026-05-04 23:41 | -14.50222 | -39.01730 | 5617 ft | 170 kts | 181° |
| 2026-05-04 23:41 | -14.51400 | -39.01817 | 5619 ft | 170 kts | 181° |
| 2026-05-04 23:41 | -14.52579 | -39.01904 | 5618 ft | 170 kts | 181° |
| 2026-05-04 23:41 | -14.53760 | -39.01984 | 5621 ft | 170 kts | 181° |
| 2026-05-04 23:42 | -14.54945 | -39.02063 | 5614 ft | 171 kts | 181° |
| 2026-05-04 23:42 | -14.56129 | -39.02140 | 5622 ft | 171 kts | 181° |
| 2026-05-04 23:42 | -14.57315 | -39.02227 | 5623 ft | 171 kts | 181° |
| 2026-05-04 23:42 | -14.58488 | -39.02313 | 5621 ft | 171 kts | 181° |
| 2026-05-04 23:43 | -14.59694 | -39.02404 | 5623 ft | 171 kts | 181° |
| 2026-05-04 23:43 | -14.60866 | -39.02485 | 5624 ft | 171 kts | 181° |
| 2026-05-04 23:43 | -14.62055 | -39.02569 | 5624 ft | 171 kts | 181° |
| 2026-05-04 23:43 | -14.63247 | -39.02654 | 5623 ft | 172 kts | 181° |
| 2026-05-04 23:44 | -14.64438 | -39.02740 | 5620 ft | 172 kts | 181° |
| 2026-05-04 23:44 | -14.65630 | -39.02827 | 5625 ft | 171 kts | 181° |
| 2026-05-04 23:44 | -14.66821 | -39.02916 | 5625 ft | 172 kts | 181° |
| 2026-05-04 23:44 | -14.68013 | -39.03004 | 5625 ft | 172 kts | 181° |
| 2026-05-04 23:45 | -14.69205 | -39.03087 | 5622 ft | 171 kts | 181° |
| 2026-05-04 23:45 | -14.70393 | -39.03169 | 5624 ft | 171 kts | 181° |
| 2026-05-04 23:45 | -14.71580 | -39.03261 | 5623 ft | 171 kts | 181° |
| 2026-05-04 23:45 | -14.72764 | -39.03353 | 5623 ft | 171 kts | 181° |
| 2026-05-04 23:46 | -14.73951 | -39.03446 | 5624 ft | 171 kts | 181° |
| 2026-05-04 23:46 | -14.75134 | -39.03531 | 5623 ft | 171 kts | 181° |
| 2026-05-04 23:46 | -14.76318 | -39.03616 | 5625 ft | 170 kts | 181° |
| 2026-05-04 23:46 | -14.77501 | -39.03699 | 5622 ft | 171 kts | 181° |
| 2026-05-04 23:47 | -14.78690 | -39.03786 | 5638 ft | 172 kts | 181° |
| 2026-05-04 23:47 | -14.79911 | -39.03869 | 5640 ft | 179 kts | 181° |
| 2026-05-04 23:47 | -14.81142 | -39.03958 | 5632 ft | 176 kts | 182° |
| 2026-05-04 23:47 | -14.82353 | -39.04055 | 5631 ft | 174 kts | 181° |
| 2026-05-04 23:48 | -14.83554 | -39.04149 | 5627 ft | 173 kts | 181° |
| 2026-05-04 23:48 | -14.84753 | -39.04236 | 5626 ft | 172 kts | 181° |
| 2026-05-04 23:48 | -14.85956 | -39.04323 | 5640 ft | 176 kts | 182° |
| 2026-05-04 23:48 | -14.87170 | -39.04409 | 5627 ft | 173 kts | 181° |
| 2026-05-04 23:49 | -14.88375 | -39.04470 | 5627 ft | 174 kts | 180° |
| 2026-05-04 23:49 | -14.89581 | -39.04554 | 5624 ft | 174 kts | 181° |
| 2026-05-04 23:49 | -14.90782 | -39.04646 | 5620 ft | 172 kts | 181° |
| 2026-05-04 23:49 | -14.91974 | -39.04738 | 5628 ft | 172 kts | 182° |
| 2026-05-04 23:50 | -14.93165 | -39.04823 | 5627 ft | 171 kts | 181° |
| 2026-05-04 23:50 | -14.94351 | -39.04906 | 5621 ft | 170 kts | 181° |
| 2026-05-04 23:50 | -14.95533 | -39.04985 | 5625 ft | 170 kts | 181° |
| 2026-05-04 23:50 | -14.96711 | -39.05069 | 5621 ft | 170 kts | 181° |
| 2026-05-04 23:51 | -14.97891 | -39.05152 | 5620 ft | 170 kts | 181° |
| 2026-05-04 23:51 | -14.99074 | -39.05233 | 5630 ft | 171 kts | 181° |
| 2026-05-04 23:51 | -15.00265 | -39.05315 | 5630 ft | 173 kts | 181° |
| 2026-05-04 23:51 | -15.01461 | -39.05385 | 5642 ft | 172 kts | 181° |
| 2026-05-04 23:52 | -15.02668 | -39.05463 | 5639 ft | 175 kts | 181° |
| 2026-05-04 23:52 | -15.03886 | -39.05540 | 5639 ft | 176 kts | 181° |
| 2026-05-04 23:52 | -15.05104 | -39.05620 | 5636 ft | 175 kts | 181° |
| 2026-05-04 23:52 | -15.06315 | -39.05700 | 5642 ft | 174 kts | 181° |
| 2026-05-04 23:53 | -15.07519 | -39.05778 | 5643 ft | 173 kts | 181° |
| 2026-05-04 23:53 | -15.08725 | -39.05857 | 5639 ft | 174 kts | 181° |
| 2026-05-04 23:53 | -15.09926 | -39.05927 | 5636 ft | 173 kts | 180° |
| 2026-05-04 23:53 | -15.11130 | -39.06003 | 5638 ft | 174 kts | 181° |
| 2026-05-04 23:54 | -15.12338 | -39.06084 | 5641 ft | 174 kts | 181° |
| 2026-05-04 23:54 | -15.13546 | -39.06167 | 5643 ft | 174 kts | 181° |
| 2026-05-04 23:54 | -15.14746 | -39.06244 | 5641 ft | 172 kts | 181° |
| 2026-05-04 23:54 | -15.15944 | -39.06326 | 5640 ft | 173 kts | 181° |
| 2026-05-04 23:55 | -15.17147 | -39.06408 | 5638 ft | 173 kts | 181° |
| 2026-05-04 23:55 | -15.18347 | -39.06488 | 5638 ft | 172 kts | 181° |
| 2026-05-04 23:55 | -15.20736 | -39.06639 | 5640 ft | 171 kts | 181° |
| 2026-05-04 23:56 | -15.21926 | -39.06714 | 5637 ft | 171 kts | 181° |
| 2026-05-04 23:56 | -15.23117 | -39.06796 | 5640 ft | 171 kts | 181° |
| 2026-05-04 23:56 | -15.24287 | -39.06875 | 5636 ft | 170 kts | 181° |
| 2026-05-04 23:56 | -15.25472 | -39.06953 | 5639 ft | 170 kts | 181° |
| 2026-05-04 23:57 | -15.26661 | -39.07029 | 5635 ft | 172 kts | 181° |
| 2026-05-04 23:57 | -15.27852 | -39.07099 | 5638 ft | 172 kts | 181° |
| 2026-05-04 23:57 | -15.29047 | -39.07177 | 5649 ft | 173 kts | 181° |
| 2026-05-04 23:57 | -15.30259 | -39.07254 | 5648 ft | 175 kts | 181° |
| 2026-05-04 23:58 | -15.31469 | -39.07330 | 5647 ft | 173 kts | 181° |
| 2026-05-04 23:58 | -15.32669 | -39.07410 | 5647 ft | 172 kts | 181° |
| 2026-05-04 23:58 | -15.33861 | -39.07487 | 5644 ft | 171 kts | 181° |
| 2026-05-04 23:58 | -15.35049 | -39.07564 | 5640 ft | 171 kts | 181° |
| 2026-05-04 23:59 | -15.36236 | -39.07644 | 5643 ft | 171 kts | 181° |
| 2026-05-04 23:59 | -15.37419 | -39.07725 | 5647 ft | 170 kts | 181° |
| 2026-05-04 23:59 | -15.38598 | -39.07805 | 5642 ft | 170 kts | 181° |
| 2026-05-04 23:59 | -15.39773 | -39.07889 | 5641 ft | 169 kts | 181° |
| 2026-05-05 00:00 | -15.40947 | -39.07931 | 5643 ft | 169 kts | 178° |
| 2026-05-05 00:00 | -15.41344 | -39.07936 | 5641 ft | 169 kts | 178° |
| 2026-05-05 00:00 | -15.43298 | -39.07957 | 5641 ft | 169 kts | 178° |
| 2026-05-05 00:00 | -15.44473 | -39.07972 | 5643 ft | 169 kts | 178° |
| 2026-05-05 00:01 | -15.45647 | -39.07989 | 5644 ft | 169 kts | 178° |
| 2026-05-05 00:01 | -15.46822 | -39.08007 | 5642 ft | 169 kts | 178° |
| 2026-05-05 00:01 | -15.47993 | -39.08023 | 5643 ft | 168 kts | 178° |
| 2026-05-05 00:01 | -15.49159 | -39.08039 | 5647 ft | 168 kts | 178° |
| 2026-05-05 00:02 | -15.50333 | -39.08055 | 5645 ft | 169 kts | 178° |
| 2026-05-05 00:02 | -15.51510 | -39.08072 | 5648 ft | 169 kts | 178° |
| 2026-05-05 00:02 | -15.52688 | -39.08091 | 5648 ft | 170 kts | 178° |
| 2026-05-05 00:02 | -15.53871 | -39.08110 | 5654 ft | 170 kts | 178° |
| 2026-05-05 00:03 | -15.55054 | -39.08129 | 5651 ft | 170 kts | 178° |
| 2026-05-05 00:03 | -15.56237 | -39.08148 | 5649 ft | 170 kts | 178° |
| 2026-05-05 00:03 | -15.57416 | -39.08167 | 5650 ft | 170 kts | 178° |
| 2026-05-05 00:03 | -15.58596 | -39.08189 | 5648 ft | 170 kts | 178° |
| 2026-05-05 00:04 | -15.59775 | -39.08211 | 5644 ft | 169 kts | 178° |
| 2026-05-05 00:04 | -15.60953 | -39.08234 | 5649 ft | 169 kts | 178° |
| 2026-05-05 00:04 | -15.62133 | -39.08257 | 5649 ft | 169 kts | 178° |
| 2026-05-05 00:04 | -15.63312 | -39.08277 | 5648 ft | 170 kts | 178° |
| 2026-05-05 00:05 | -15.64492 | -39.08298 | 5648 ft | 169 kts | 178° |
| 2026-05-05 00:05 | -15.65669 | -39.08321 | 5648 ft | 169 kts | 178° |
| 2026-05-05 00:05 | -15.66842 | -39.08343 | 5645 ft | 169 kts | 178° |
| 2026-05-05 00:05 | -15.68014 | -39.08367 | 5642 ft | 168 kts | 178° |
| 2026-05-05 00:06 | -15.69185 | -39.08393 | 5642 ft | 169 kts | 178° |
| 2026-05-05 00:06 | -15.70361 | -39.08421 | 5646 ft | 170 kts | 178° |
| 2026-05-05 00:06 | -15.71545 | -39.08446 | 5646 ft | 170 kts | 178° |
| 2026-05-05 00:06 | -15.72727 | -39.08472 | 5645 ft | 170 kts | 178° |
| 2026-05-05 00:07 | -15.73907 | -39.08497 | 5650 ft | 170 kts | 178° |
| 2026-05-05 00:07 | -15.75087 | -39.08525 | 5651 ft | 169 kts | 178° |
| 2026-05-05 00:07 | -15.76262 | -39.08554 | 5648 ft | 169 kts | 178° |
| 2026-05-05 00:07 | -15.77433 | -39.08583 | 5646 ft | 168 kts | 178° |
| 2026-05-05 00:08 | -15.78588 | -39.08611 | 5647 ft | 168 kts | 178° |
| 2026-05-05 00:08 | -15.79758 | -39.08639 | 5645 ft | 168 kts | 178° |
| 2026-05-05 00:08 | -15.80925 | -39.08667 | 5643 ft | 168 kts | 178° |
| 2026-05-05 00:08 | -15.82094 | -39.08689 | 5644 ft | 168 kts | 178° |
| 2026-05-05 00:09 | -15.83263 | -39.08715 | 5647 ft | 168 kts | 178° |
| 2026-05-05 00:09 | -15.84430 | -39.08741 | 5645 ft | 168 kts | 178° |
| 2026-05-05 00:09 | -15.85596 | -39.08771 | 5642 ft | 167 kts | 178° |
| 2026-05-05 00:09 | -15.86761 | -39.08802 | 5648 ft | 168 kts | 178° |
| 2026-05-05 00:10 | -15.87926 | -39.08833 | 5646 ft | 167 kts | 178° |
| 2026-05-05 00:10 | -15.89088 | -39.08865 | 5646 ft | 167 kts | 178° |
| 2026-05-05 00:10 | -15.90253 | -39.08900 | 5645 ft | 167 kts | 178° |
| 2026-05-05 00:10 | -15.91419 | -39.08932 | 5647 ft | 168 kts | 178° |
| 2026-05-05 00:11 | -15.92586 | -39.08969 | 5642 ft | 168 kts | 178° |
| 2026-05-05 00:11 | -15.93751 | -39.09002 | 5644 ft | 167 kts | 178° |
| 2026-05-05 00:11 | -15.94915 | -39.09033 | 5642 ft | 167 kts | 178° |
| 2026-05-05 00:11 | -15.96080 | -39.09068 | 5643 ft | 167 kts | 178° |
| 2026-05-05 00:12 | -15.97241 | -39.09105 | 5646 ft | 167 kts | 178° |
| 2026-05-05 00:12 | -15.98404 | -39.09146 | 5646 ft | 167 kts | 178° |
| 2026-05-05 00:12 | -15.99567 | -39.09184 | 5644 ft | 167 kts | 178° |
| 2026-05-05 00:12 | -16.00731 | -39.09218 | 5644 ft | 167 kts | 178° |
| 2026-05-05 00:13 | -16.01892 | -39.09250 | 5646 ft | 167 kts | 178° |
| 2026-05-05 00:13 | -16.03054 | -39.09282 | 5646 ft | 167 kts | 178° |
| 2026-05-05 00:13 | -16.04218 | -39.09322 | 5647 ft | 168 kts | 178° |
| 2026-05-05 00:13 | -16.05387 | -39.09362 | 5649 ft | 168 kts | 178° |
| 2026-05-05 00:14 | -16.06558 | -39.09399 | 5646 ft | 168 kts | 178° |
| 2026-05-05 00:14 | -16.07729 | -39.09435 | 5647 ft | 169 kts | 178° |
| 2026-05-05 00:14 | -16.08903 | -39.09470 | 5646 ft | 169 kts | 178° |
| 2026-05-05 00:14 | -16.10078 | -39.09505 | 5657 ft | 170 kts | 178° |
| 2026-05-05 00:15 | -16.11265 | -39.09540 | 5650 ft | 170 kts | 178° |
| 2026-05-05 00:15 | -16.12046 | -39.09563 | 5655 ft | 170 kts | 178° |
| 2026-05-05 00:15 | -16.13230 | -39.09601 | 5654 ft | 171 kts | 178° |
| 2026-05-05 00:15 | -16.14415 | -39.09640 | 5652 ft | 170 kts | 178° |
| 2026-05-05 00:16 | -16.15592 | -39.09674 | 5651 ft | 169 kts | 178° |
| 2026-05-05 00:16 | -16.16763 | -39.09711 | 5655 ft | 168 kts | 178° |
| 2026-05-05 00:16 | -16.17932 | -39.09748 | 5653 ft | 168 kts | 178° |
| 2026-05-05 00:16 | -16.19099 | -39.09766 | 5651 ft | 167 kts | 175° |
| 2026-05-05 00:17 | -16.20259 | -39.09738 | 5654 ft | 167 kts | 175° |
| 2026-05-05 00:17 | -16.21424 | -39.09707 | 5653 ft | 167 kts | 175° |
| 2026-05-05 00:17 | -16.22587 | -39.09678 | 5654 ft | 167 kts | 175° |
| 2026-05-05 00:17 | -16.23755 | -39.09644 | 5651 ft | 168 kts | 175° |
| 2026-05-05 00:18 | -16.24921 | -39.09608 | 5649 ft | 167 kts | 175° |
| 2026-05-05 00:18 | -16.26085 | -39.09572 | 5651 ft | 167 kts | 175° |
| 2026-05-05 00:18 | -16.27247 | -39.09540 | 5651 ft | 167 kts | 175° |
| 2026-05-05 00:18 | -16.28405 | -39.09513 | 5655 ft | 167 kts | 175° |
| 2026-05-05 00:19 | -16.29574 | -39.09488 | 5656 ft | 170 kts | 175° |
| 2026-05-05 00:19 | -16.30759 | -39.09464 | 5667 ft | 171 kts | 175° |
| 2026-05-05 00:19 | -16.31958 | -39.09440 | 5663 ft | 173 kts | 175° |
| 2026-05-05 00:19 | -16.33172 | -39.09412 | 5664 ft | 178 kts | 176° |
| 2026-05-05 00:20 | -16.34413 | -39.09372 | 5655 ft | 177 kts | 175° |
| 2026-05-05 00:20 | -16.35628 | -39.09338 | 5648 ft | 173 kts | 175° |
| 2026-05-05 00:20 | -16.36818 | -39.09304 | 5650 ft | 170 kts | 175° |
| 2026-05-05 00:20 | -16.37999 | -39.09271 | 5597 ft | 171 kts | 175° |
| 2026-05-05 00:21 | -16.39203 | -39.09236 | 5502 ft | 173 kts | 175° |
| 2026-05-05 00:21 | -16.40392 | -39.09199 | 5501 ft | 170 kts | 175° |
| 2026-05-05 00:21 | -16.41568 | -39.09170 | 5499 ft | 168 kts | 175° |
| 2026-05-05 00:21 | -16.42739 | -39.09142 | 5492 ft | 168 kts | 175° |
| 2026-05-05 00:22 | -16.43903 | -39.09113 | 5497 ft | 167 kts | 175° |
| 2026-05-05 00:22 | -16.45065 | -39.09078 | 5495 ft | 167 kts | 175° |
| 2026-05-05 00:22 | -16.46221 | -39.09044 | 5493 ft | 166 kts | 175° |
| 2026-05-05 00:22 | -16.47379 | -39.09010 | 5488 ft | 166 kts | 175° |
| 2026-05-05 00:23 | -16.48530 | -39.08972 | 5491 ft | 166 kts | 175° |
| 2026-05-05 00:23 | -16.49684 | -39.08939 | 5486 ft | 166 kts | 175° |
| 2026-05-05 00:23 | -16.50839 | -39.08907 | 5486 ft | 166 kts | 176° |
| 2026-05-05 00:23 | -16.51994 | -39.08993 | 5481 ft | 167 kts | 184° |
| 2026-05-05 00:24 | -16.53146 | -39.09171 | 5483 ft | 167 kts | 184° |
| 2026-05-05 00:24 | -16.54295 | -39.09345 | 5485 ft | 167 kts | 184° |
| 2026-05-05 00:24 | -16.55448 | -39.09517 | 5487 ft | 168 kts | 184° |
| 2026-05-05 00:24 | -16.56604 | -39.09687 | 5485 ft | 168 kts | 184° |
| 2026-05-05 00:25 | -16.57758 | -39.09863 | 5486 ft | 168 kts | 184° |
| 2026-05-05 00:25 | -16.58910 | -39.10040 | 5484 ft | 167 kts | 184° |
| 2026-05-05 00:25 | -16.60061 | -39.10217 | 5483 ft | 167 kts | 184° |
| 2026-05-05 00:25 | -16.61197 | -39.10381 | 5486 ft | 167 kts | 184° |
| 2026-05-05 00:26 | -16.62348 | -39.10549 | 5487 ft | 168 kts | 184° |
| 2026-05-05 00:26 | -16.63505 | -39.10736 | 5487 ft | 169 kts | 186° |
| 2026-05-05 00:26 | -16.64662 | -39.10976 | 5486 ft | 170 kts | 187° |
| 2026-05-05 00:26 | -16.65821 | -39.11226 | 5486 ft | 170 kts | 187° |
| 2026-05-05 00:27 | -16.66955 | -39.11468 | 5481 ft | 154 kts | 188° |
| 2026-05-05 00:27 | -16.68019 | -39.11697 | 5482 ft | 158 kts | 187° |
| 2026-05-05 00:27 | -16.69111 | -39.11922 | 5486 ft | 162 kts | 186° |
| 2026-05-05 00:27 | -16.70225 | -39.12157 | 5485 ft | 165 kts | 187° |
| 2026-05-05 00:28 | -16.71356 | -39.12400 | 5492 ft | 167 kts | 187° |
| 2026-05-05 00:28 | -16.72499 | -39.12644 | 5494 ft | 168 kts | 187° |
| 2026-05-05 00:28 | -16.73649 | -39.12885 | 5494 ft | 169 kts | 187° |
| 2026-05-05 00:28 | -16.74800 | -39.13130 | 5497 ft | 169 kts | 187° |
| 2026-05-05 00:29 | -16.75954 | -39.13374 | 5499 ft | 169 kts | 187° |
| 2026-05-05 00:29 | -16.77107 | -39.13618 | 5498 ft | 169 kts | 186° |
| 2026-05-05 00:29 | -16.78260 | -39.13863 | 5497 ft | 169 kts | 187° |
| 2026-05-05 00:29 | -16.79411 | -39.14107 | 5501 ft | 169 kts | 187° |
| 2026-05-05 00:30 | -16.80573 | -39.14354 | 5498 ft | 173 kts | 187° |
| 2026-05-05 00:30 | -16.81760 | -39.14608 | 5497 ft | 176 kts | 187° |
| 2026-05-05 00:30 | -16.82959 | -39.14854 | 5497 ft | 175 kts | 187° |
| 2026-05-05 00:30 | -16.84144 | -39.15104 | 5495 ft | 172 kts | 187° |
| 2026-05-05 00:31 | -16.85316 | -39.15349 | 5490 ft | 171 kts | 187° |
| 2026-05-05 00:31 | -16.86476 | -39.15596 | 5489 ft | 170 kts | 187° |
| 2026-05-05 00:31 | -16.87633 | -39.15848 | 5487 ft | 170 kts | 187° |
| 2026-05-05 00:31 | -16.88792 | -39.16102 | 5489 ft | 170 kts | 187° |
| 2026-05-05 00:32 | -16.89954 | -39.16347 | 5495 ft | 170 kts | 187° |
| 2026-05-05 00:32 | -16.91113 | -39.16591 | 5492 ft | 170 kts | 187° |
| 2026-05-05 00:32 | -16.92270 | -39.16837 | 5494 ft | 170 kts | 187° |
| 2026-05-05 00:32 | -16.93427 | -39.17089 | 5492 ft | 170 kts | 187° |
| 2026-05-05 00:33 | -16.94583 | -39.17342 | 5491 ft | 170 kts | 187° |
| 2026-05-05 00:33 | -16.95744 | -39.17594 | 5496 ft | 171 kts | 187° |
| 2026-05-05 00:33 | -16.96910 | -39.17842 | 5495 ft | 171 kts | 186° |
| 2026-05-05 00:33 | -16.98073 | -39.18093 | 5496 ft | 171 kts | 187° |
| 2026-05-05 00:34 | -16.99223 | -39.18341 | 5493 ft | 170 kts | 187° |
| 2026-05-05 00:34 | -17.00382 | -39.18594 | 5528 ft | 170 kts | 187° |
| 2026-05-05 00:34 | -17.01538 | -39.18842 | 5537 ft | 170 kts | 187° |
| 2026-05-05 00:34 | -17.02698 | -39.19087 | 5566 ft | 170 kts | 187° |
| 2026-05-05 00:35 | -17.03854 | -39.19332 | 5591 ft | 170 kts | 187° |
| 2026-05-05 00:35 | -17.05010 | -39.19578 | 5610 ft | 170 kts | 186° |
| 2026-05-05 00:35 | -17.06169 | -39.19831 | 5616 ft | 170 kts | 187° |
| 2026-05-05 00:35 | -17.07330 | -39.20087 | 5611 ft | 171 kts | 187° |
| 2026-05-05 00:36 | -17.08491 | -39.20339 | 5651 ft | 170 kts | 187° |
| 2026-05-05 00:36 | -17.09654 | -39.20585 | 5699 ft | 171 kts | 187° |
| 2026-05-05 00:36 | -17.10819 | -39.20829 | 5719 ft | 171 kts | 187° |
| 2026-05-05 00:36 | -17.11989 | -39.21078 | 5731 ft | 172 kts | 187° |
| 2026-05-05 00:37 | -17.13161 | -39.21334 | 5755 ft | 173 kts | 189° |
| 2026-05-05 00:37 | -17.14308 | -39.21730 | 5771 ft | 174 kts | 195° |
| 2026-05-05 00:37 | -17.15435 | -39.22212 | 5796 ft | 175 kts | 198° |
| 2026-05-05 00:37 | -17.16558 | -39.22710 | 5803 ft | 176 kts | 198° |
| 2026-05-05 00:38 | -17.17685 | -39.23207 | 5801 ft | 176 kts | 198° |
| 2026-05-05 00:38 | -17.18813 | -39.23704 | 5795 ft | 176 kts | 198° |
| 2026-05-05 00:38 | -17.19941 | -39.24205 | 5801 ft | 176 kts | 198° |
| 2026-05-05 00:38 | -17.21068 | -39.24704 | 5810 ft | 176 kts | 198° |
| 2026-05-05 00:39 | -17.22192 | -39.25204 | 5814 ft | 176 kts | 198° |
| 2026-05-05 00:39 | -17.23319 | -39.25704 | 5816 ft | 176 kts | 198° |
| 2026-05-05 00:39 | -17.24443 | -39.26204 | 5809 ft | 176 kts | 198° |
| 2026-05-05 00:39 | -17.25567 | -39.26706 | 5815 ft | 176 kts | 198° |
| 2026-05-05 00:40 | -17.26694 | -39.27209 | 5835 ft | 176 kts | 198° |
| 2026-05-05 00:40 | -17.27825 | -39.27709 | 5862 ft | 177 kts | 198° |
| 2026-05-05 00:40 | -17.28954 | -39.28214 | 5877 ft | 177 kts | 198° |
| 2026-05-05 00:40 | -17.30084 | -39.28718 | 5893 ft | 177 kts | 198° |
| 2026-05-05 00:41 | -17.31217 | -39.29221 | 5910 ft | 177 kts | 198° |
| 2026-05-05 00:41 | -17.32349 | -39.29723 | 5912 ft | 177 kts | 198° |
| 2026-05-05 00:41 | -17.33485 | -39.30225 | 5917 ft | 177 kts | 198° |
| 2026-05-05 00:41 | -17.34622 | -39.30729 | 5930 ft | 177 kts | 198° |
| 2026-05-05 00:42 | -17.35761 | -39.31230 | 5928 ft | 177 kts | 198° |
| 2026-05-05 00:42 | -17.36896 | -39.31731 | 5934 ft | 177 kts | 198° |
| 2026-05-05 00:42 | -17.38034 | -39.32232 | 5940 ft | 177 kts | 198° |
| 2026-05-05 00:42 | -17.39155 | -39.32727 | 5957 ft | 177 kts | 198° |
| 2026-05-05 00:43 | -17.40293 | -39.33232 | 5981 ft | 178 kts | 198° |
| 2026-05-05 00:43 | -17.41442 | -39.33702 | 6007 ft | 176 kts | 195° |
| 2026-05-05 00:43 | -17.42587 | -39.34138 | 6022 ft | 174 kts | 195° |
| 2026-05-05 00:43 | -17.43721 | -39.34571 | 6037 ft | 173 kts | 195° |
| 2026-05-05 00:44 | -17.44866 | -39.35006 | 6038 ft | 172 kts | 195° |
| 2026-05-05 00:44 | -17.45881 | -39.35394 | 6049 ft | 172 kts | 195° |
| 2026-05-05 00:44 | -17.46991 | -39.35820 | 6076 ft | 172 kts | 195° |
| 2026-05-05 00:44 | -17.48115 | -39.36250 | 6092 ft | 172 kts | 194° |
| 2026-05-05 00:45 | -17.49239 | -39.36680 | 6088 ft | 172 kts | 195° |
| 2026-05-05 00:45 | -17.50363 | -39.37108 | 6093 ft | 172 kts | 194° |
| 2026-05-05 00:45 | -17.51489 | -39.37532 | 6117 ft | 172 kts | 194° |
| 2026-05-05 00:45 | -17.52616 | -39.37961 | 6125 ft | 172 kts | 195° |
| 2026-05-05 00:46 | -17.53739 | -39.38391 | 6131 ft | 172 kts | 195° |
| 2026-05-05 00:46 | -17.54864 | -39.38820 | 6151 ft | 172 kts | 195° |
| 2026-05-05 00:46 | -17.55987 | -39.39247 | 6165 ft | 172 kts | 195° |
| 2026-05-05 00:46 | -17.57112 | -39.39673 | 6197 ft | 172 kts | 194° |
| 2026-05-05 00:47 | -17.58236 | -39.40099 | 6232 ft | 172 kts | 195° |
| 2026-05-05 00:47 | -17.59363 | -39.40528 | 6306 ft | 172 kts | 195° |
| 2026-05-05 00:47 | -17.60492 | -39.40959 | 6311 ft | 173 kts | 195° |
| 2026-05-05 00:47 | -17.61623 | -39.41387 | 6348 ft | 173 kts | 195° |
| 2026-05-05 00:48 | -17.62755 | -39.41818 | 6366 ft | 173 kts | 195° |
| 2026-05-05 00:48 | -17.63887 | -39.42254 | 6363 ft | 173 kts | 194° |
| 2026-05-05 00:48 | -17.65021 | -39.42688 | 6354 ft | 174 kts | 195° |
| 2026-05-05 00:48 | -17.66155 | -39.43124 | 6379 ft | 173 kts | 195° |
| 2026-05-05 00:49 | -17.67293 | -39.43540 | 6393 ft | 173 kts | 192° |
| 2026-05-05 00:49 | -17.68451 | -39.43874 | 6419 ft | 173 kts | 189° |
| 2026-05-05 00:49 | -17.69613 | -39.44196 | 6423 ft | 173 kts | 190° |
| 2026-05-05 00:49 | -17.70775 | -39.44516 | 6432 ft | 173 kts | 189° |
| 2026-05-05 00:50 | -17.71938 | -39.44835 | 6430 ft | 173 kts | 190° |
| 2026-05-05 00:50 | -17.73100 | -39.45154 | 6452 ft | 173 kts | 189° |
| 2026-05-05 00:50 | -17.74264 | -39.45475 | 6501 ft | 172 kts | 189° |
| 2026-05-05 00:50 | -17.75420 | -39.45792 | 6518 ft | 173 kts | 190° |
| 2026-05-05 00:51 | -17.76595 | -39.46115 | 6512 ft | 175 kts | 189° |
| 2026-05-05 00:51 | -17.77790 | -39.46354 | 6512 ft | 174 kts | 185° |
| 2026-05-05 00:51 | -17.78991 | -39.46557 | 6515 ft | 176 kts | 184° |
| 2026-05-05 00:51 | -17.80181 | -39.46767 | 6514 ft | 175 kts | 185° |
| 2026-05-05 00:52 | -17.81387 | -39.46983 | 6520 ft | 177 kts | 185° |
| 2026-05-05 00:52 | -17.82596 | -39.47193 | 6519 ft | 176 kts | 185° |
| 2026-05-05 00:52 | -17.83805 | -39.47404 | 6526 ft | 177 kts | 184° |
| 2026-05-05 00:52 | -17.85030 | -39.47616 | 6516 ft | 178 kts | 185° |
| 2026-05-05 00:53 | -17.86251 | -39.47829 | 6516 ft | 178 kts | 185° |
| 2026-05-05 00:53 | -17.87479 | -39.48042 | 6515 ft | 179 kts | 185° |
| 2026-05-05 00:53 | -17.88714 | -39.48255 | 6514 ft | 180 kts | 185° |
| 2026-05-05 00:53 | -17.89948 | -39.48468 | 6514 ft | 179 kts | 185° |
| 2026-05-05 00:54 | -17.91175 | -39.48680 | 6517 ft | 178 kts | 185° |
| 2026-05-05 00:54 | -17.92404 | -39.48898 | 6515 ft | 179 kts | 185° |
| 2026-05-05 00:54 | -17.93632 | -39.49118 | 6518 ft | 179 kts | 185° |
| 2026-05-05 00:54 | -17.94868 | -39.49343 | 6514 ft | 180 kts | 185° |
| 2026-05-05 00:55 | -17.96107 | -39.49558 | 6529 ft | 181 kts | 184° |
| 2026-05-05 00:55 | -17.97357 | -39.49774 | 6525 ft | 183 kts | 185° |
| 2026-05-05 00:55 | -17.98612 | -39.49993 | 6525 ft | 183 kts | 185° |
| 2026-05-05 00:55 | -17.99860 | -39.50235 | 6523 ft | 183 kts | 187° |
| 2026-05-05 00:56 | -18.01099 | -39.50549 | 6529 ft | 183 kts | 189° |
| 2026-05-05 00:56 | -18.02338 | -39.50870 | 6524 ft | 184 kts | 188° |
| 2026-05-05 00:56 | -18.03575 | -39.51182 | 6514 ft | 182 kts | 189° |
| 2026-05-05 00:56 | -18.04798 | -39.51500 | 6517 ft | 181 kts | 188° |
| 2026-05-05 00:57 | -18.06016 | -39.51821 | 6516 ft | 180 kts | 188° |
| 2026-05-05 00:57 | -18.07231 | -39.52137 | 6513 ft | 179 kts | 189° |
| 2026-05-05 00:57 | -18.08438 | -39.52454 | 6514 ft | 179 kts | 189° |
| 2026-05-05 00:57 | -18.09646 | -39.52776 | 6513 ft | 179 kts | 188° |
| 2026-05-05 00:58 | -18.10856 | -39.53100 | 6515 ft | 179 kts | 189° |
| 2026-05-05 00:58 | -18.12059 | -39.53441 | 6514 ft | 180 kts | 191° |
| 2026-05-05 00:58 | -18.13260 | -39.53800 | 6517 ft | 180 kts | 191° |
| 2026-05-05 00:58 | -18.14461 | -39.54166 | 6518 ft | 179 kts | 191° |
| 2026-05-05 00:59 | -18.15658 | -39.54536 | 6513 ft | 180 kts | 191° |
| 2026-05-05 00:59 | -18.16858 | -39.54905 | 6515 ft | 179 kts | 191° |
| 2026-05-05 00:59 | -18.18052 | -39.55271 | 6514 ft | 178 kts | 191° |
| 2026-05-05 00:59 | -18.19240 | -39.55640 | 6514 ft | 178 kts | 191° |
| 2026-05-05 01:00 | -18.20422 | -39.56007 | 6514 ft | 177 kts | 191° |
| 2026-05-05 01:00 | -18.21602 | -39.56376 | 6519 ft | 177 kts | 191° |
| 2026-05-05 01:00 | -18.22782 | -39.56746 | 6516 ft | 177 kts | 191° |
| 2026-05-05 01:00 | -18.23946 | -39.57115 | 6514 ft | 177 kts | 191° |
| 2026-05-05 01:01 | -18.25123 | -39.57480 | 6512 ft | 176 kts | 191° |
| 2026-05-05 01:01 | -18.26298 | -39.57847 | 6513 ft | 176 kts | 190° |
| 2026-05-05 01:01 | -18.27474 | -39.58222 | 6511 ft | 177 kts | 191° |
| 2026-05-05 01:01 | -18.28650 | -39.58596 | 6519 ft | 176 kts | 191° |
| 2026-05-05 01:02 | -18.29820 | -39.58962 | 6520 ft | 176 kts | 191° |
| 2026-05-05 01:02 | -18.30995 | -39.59330 | 6520 ft | 176 kts | 191° |
| 2026-05-05 01:02 | -18.31791 | -39.59580 | 6517 ft | 177 kts | 191° |
| 2026-05-05 01:02 | -18.32969 | -39.59959 | 6519 ft | 177 kts | 192° |
| 2026-05-05 01:03 | -18.34139 | -39.60350 | 6519 ft | 176 kts | 192° |
| 2026-05-05 01:03 | -18.35308 | -39.60741 | 6514 ft | 176 kts | 192° |
| 2026-05-05 01:03 | -18.36465 | -39.61127 | 6518 ft | 177 kts | 192° |
| 2026-05-05 01:03 | -18.37641 | -39.61519 | 6521 ft | 178 kts | 192° |
| 2026-05-05 01:04 | -18.38820 | -39.61912 | 6517 ft | 177 kts | 192° |
| 2026-05-05 01:04 | -18.41179 | -39.62681 | 6520 ft | 178 kts | 192° |
| 2026-05-05 01:04 | -18.42360 | -39.63071 | 6521 ft | 178 kts | 192° |
| 2026-05-05 01:05 | -18.43541 | -39.63464 | 6518 ft | 178 kts | 192° |
| 2026-05-05 01:05 | -18.44725 | -39.63849 | 6520 ft | 178 kts | 192° |
| 2026-05-05 01:05 | -18.45911 | -39.64234 | 6522 ft | 178 kts | 192° |
| 2026-05-05 01:05 | -18.47097 | -39.64615 | 6520 ft | 178 kts | 192° |
| 2026-05-05 01:06 | -18.48287 | -39.64996 | 6523 ft | 179 kts | 192° |
| 2026-05-05 01:06 | -18.49479 | -39.65380 | 6521 ft | 179 kts | 192° |
| 2026-05-05 01:06 | -18.50671 | -39.65761 | 6524 ft | 179 kts | 192° |
| 2026-05-05 01:06 | -18.51865 | -39.66139 | 6519 ft | 179 kts | 192° |
| 2026-05-05 01:07 | -18.53059 | -39.66517 | 6526 ft | 180 kts | 192° |
| 2026-05-05 01:07 | -18.54254 | -39.66898 | 6521 ft | 179 kts | 192° |
| 2026-05-05 01:07 | -18.55450 | -39.67281 | 6525 ft | 179 kts | 192° |
| 2026-05-05 01:07 | -18.56640 | -39.67667 | 6523 ft | 179 kts | 192° |
| 2026-05-05 01:08 | -18.57828 | -39.68052 | 6524 ft | 179 kts | 192° |
| 2026-05-05 01:08 | -18.59019 | -39.68433 | 6525 ft | 179 kts | 192° |
| 2026-05-05 01:08 | -18.60206 | -39.68815 | 6528 ft | 179 kts | 192° |
| 2026-05-05 01:08 | -18.61397 | -39.69200 | 6528 ft | 179 kts | 192° |
| 2026-05-05 01:09 | -18.62589 | -39.69579 | 6528 ft | 179 kts | 192° |
| 2026-05-05 01:09 | -18.63781 | -39.69962 | 6530 ft | 180 kts | 192° |
| 2026-05-05 01:09 | -18.64982 | -39.70345 | 6530 ft | 181 kts | 192° |
| 2026-05-05 01:09 | -18.66186 | -39.70720 | 6527 ft | 180 kts | 192° |
| 2026-05-05 01:10 | -18.67391 | -39.71097 | 6529 ft | 180 kts | 192° |
| 2026-05-05 01:10 | -18.68593 | -39.71477 | 6526 ft | 180 kts | 192° |
| 2026-05-05 01:10 | -18.69795 | -39.71852 | 6525 ft | 180 kts | 192° |
| 2026-05-05 01:10 | -18.70997 | -39.72229 | 6527 ft | 180 kts | 192° |
| 2026-05-05 01:11 | -18.72201 | -39.72602 | 6525 ft | 181 kts | 192° |
| 2026-05-05 01:11 | -18.73405 | -39.72979 | 6527 ft | 181 kts | 192° |
| 2026-05-05 01:11 | -18.74609 | -39.73358 | 6527 ft | 181 kts | 192° |
| 2026-05-05 01:11 | -18.75815 | -39.73731 | 6527 ft | 181 kts | 192° |
| 2026-05-05 01:12 | -18.77020 | -39.74103 | 6526 ft | 180 kts | 192° |
| 2026-05-05 01:12 | -18.78222 | -39.74478 | 6527 ft | 180 kts | 192° |
| 2026-05-05 01:12 | -18.79423 | -39.74850 | 6526 ft | 180 kts | 192° |
| 2026-05-05 01:12 | -18.80629 | -39.75222 | 6528 ft | 181 kts | 192° |
| 2026-05-05 01:13 | -18.81837 | -39.75595 | 6526 ft | 181 kts | 192° |
| 2026-05-05 01:13 | -18.83045 | -39.75966 | 6527 ft | 181 kts | 192° |
| 2026-05-05 01:13 | -18.84255 | -39.76338 | 6533 ft | 182 kts | 192° |
| 2026-05-05 01:13 | -18.85471 | -39.76711 | 6531 ft | 182 kts | 192° |
| 2026-05-05 01:14 | -18.86685 | -39.77079 | 6530 ft | 181 kts | 192° |
| 2026-05-05 01:14 | -18.87901 | -39.77448 | 6536 ft | 183 kts | 192° |
| 2026-05-05 01:14 | -18.89125 | -39.77817 | 6538 ft | 183 kts | 192° |
| 2026-05-05 01:14 | -18.90348 | -39.78184 | 6532 ft | 183 kts | 192° |
| 2026-05-05 01:15 | -18.91573 | -39.78547 | 6536 ft | 183 kts | 191° |
| 2026-05-05 01:15 | -18.92796 | -39.78911 | 6535 ft | 182 kts | 192° |
| 2026-05-05 01:15 | -18.94016 | -39.79275 | 6534 ft | 182 kts | 192° |
| 2026-05-05 01:15 | -18.95230 | -39.79634 | 6532 ft | 181 kts | 192° |
| 2026-05-05 01:16 | -18.96445 | -39.79988 | 6530 ft | 181 kts | 192° |
| 2026-05-05 01:16 | -18.97658 | -39.80342 | 6532 ft | 181 kts | 192° |
| 2026-05-05 01:16 | -18.98872 | -39.80691 | 6538 ft | 180 kts | 192° |
| 2026-05-05 01:16 | -19.00080 | -39.81040 | 6533 ft | 180 kts | 192° |
| 2026-05-05 01:17 | -19.01272 | -39.81381 | 6532 ft | 180 kts | 192° |
| 2026-05-05 01:17 | -19.02476 | -39.81723 | 6537 ft | 179 kts | 192° |
| 2026-05-05 01:17 | -19.03704 | -39.82067 | 6530 ft | 181 kts | 192° |
| 2026-05-05 01:17 | -19.04901 | -39.82405 | 6529 ft | 180 kts | 192° |
| 2026-05-05 01:18 | -19.06110 | -39.82744 | 6530 ft | 180 kts | 192° |
| 2026-05-05 01:18 | -19.07321 | -39.83081 | 6533 ft | 180 kts | 192° |
| 2026-05-05 01:18 | -19.08537 | -39.83417 | 6539 ft | 181 kts | 192° |
| 2026-05-05 01:18 | -19.09751 | -39.83754 | 6532 ft | 181 kts | 192° |
| 2026-05-05 01:19 | -19.10967 | -39.84091 | 6536 ft | 181 kts | 192° |
| 2026-05-05 01:19 | -19.12186 | -39.84424 | 6533 ft | 180 kts | 192° |
| 2026-05-05 01:19 | -19.13400 | -39.84755 | 6535 ft | 180 kts | 192° |
| 2026-05-05 01:19 | -19.14613 | -39.85087 | 6534 ft | 180 kts | 192° |
| 2026-05-05 01:20 | -19.15824 | -39.85415 | 6537 ft | 180 kts | 192° |
| 2026-05-05 01:20 | -19.17035 | -39.85740 | 6536 ft | 180 kts | 192° |
| 2026-05-05 01:20 | -19.18246 | -39.86068 | 6536 ft | 180 kts | 192° |
| 2026-05-05 01:20 | -19.19462 | -39.86394 | 6537 ft | 181 kts | 192° |
| 2026-05-05 01:21 | -19.20681 | -39.86723 | 6536 ft | 181 kts | 192° |
| 2026-05-05 01:21 | -19.21902 | -39.87044 | 6536 ft | 180 kts | 192° |
| 2026-05-05 01:21 | -19.23115 | -39.87365 | 6537 ft | 179 kts | 192° |
| 2026-05-05 01:21 | -19.24324 | -39.87704 | 6539 ft | 180 kts | 193° |
| 2026-05-05 01:22 | -19.25533 | -39.88072 | 6537 ft | 181 kts | 194° |
| 2026-05-05 01:22 | -19.26745 | -39.88437 | 6534 ft | 180 kts | 194° |
| 2026-05-05 01:22 | -19.27951 | -39.88801 | 6539 ft | 181 kts | 194° |
| 2026-05-05 01:22 | -19.29160 | -39.89166 | 6532 ft | 180 kts | 194° |
| 2026-05-05 01:23 | -19.30364 | -39.89526 | 6544 ft | 181 kts | 194° |
| 2026-05-05 01:23 | -19.31572 | -39.89887 | 6532 ft | 180 kts | 194° |
| 2026-05-05 01:23 | -19.32775 | -39.90245 | 6534 ft | 180 kts | 194° |
| 2026-05-05 01:23 | -19.33979 | -39.90602 | 6544 ft | 181 kts | 194° |
| 2026-05-05 01:24 | -19.35175 | -39.90961 | 6544 ft | 182 kts | 194° |
| 2026-05-05 01:24 | -19.36402 | -39.91328 | 6546 ft | 184 kts | 194° |
| 2026-05-05 01:24 | -19.37622 | -39.91729 | 6539 ft | 182 kts | 197° |
| 2026-05-05 01:24 | -19.38825 | -39.92158 | 6544 ft | 182 kts | 197° |
| 2026-05-05 01:25 | -19.40034 | -39.92586 | 6543 ft | 184 kts | 197° |
| 2026-05-05 01:25 | -19.41252 | -39.93022 | 6539 ft | 184 kts | 197° |
| 2026-05-05 01:25 | -19.42457 | -39.93453 | 6544 ft | 182 kts | 197° |
| 2026-05-05 01:25 | -19.43650 | -39.93879 | 6539 ft | 180 kts | 197° |
| 2026-05-05 01:26 | -19.44834 | -39.94302 | 6538 ft | 180 kts | 197° |
| 2026-05-05 01:26 | -19.46016 | -39.94721 | 6533 ft | 178 kts | 197° |
| 2026-05-05 01:26 | -19.47192 | -39.95137 | 6536 ft | 178 kts | 197° |
| 2026-05-05 01:26 | -19.48365 | -39.95548 | 6536 ft | 178 kts | 197° |
| 2026-05-05 01:27 | -19.49543 | -39.95966 | 6538 ft | 179 kts | 197° |
| 2026-05-05 01:27 | -19.50723 | -39.96379 | 6537 ft | 178 kts | 197° |
| 2026-05-05 01:27 | -19.51898 | -39.96791 | 6535 ft | 178 kts | 197° |
| 2026-05-05 01:27 | -19.53074 | -39.97203 | 6547 ft | 178 kts | 197° |
| 2026-05-05 01:28 | -19.54251 | -39.97616 | 6533 ft | 179 kts | 197° |
| 2026-05-05 01:28 | -19.55427 | -39.98027 | 6537 ft | 178 kts | 197° |
| 2026-05-05 01:28 | -19.56604 | -39.98435 | 6541 ft | 178 kts | 197° |
| 2026-05-05 01:28 | -19.57780 | -39.98842 | 6534 ft | 178 kts | 197° |
| 2026-05-05 01:29 | -19.58949 | -39.99247 | 6536 ft | 176 kts | 197° |
| 2026-05-05 01:29 | -19.60113 | -39.99648 | 6537 ft | 175 kts | 197° |
| 2026-05-05 01:29 | -19.61274 | -40.00045 | 6536 ft | 175 kts | 197° |
| 2026-05-05 01:29 | -19.62437 | -40.00442 | 6539 ft | 176 kts | 197° |
| 2026-05-05 01:30 | -19.63601 | -40.00841 | 6537 ft | 175 kts | 197° |
| 2026-05-05 01:30 | -19.64760 | -40.01239 | 6539 ft | 175 kts | 197° |
| 2026-05-05 01:30 | -19.65919 | -40.01630 | 6536 ft | 175 kts | 197° |
| 2026-05-05 01:30 | -19.67078 | -40.02023 | 6542 ft | 175 kts | 197° |
| 2026-05-05 01:31 | -19.68219 | -40.02407 | 6541 ft | 175 kts | 197° |
| 2026-05-05 01:31 | -19.69378 | -40.02799 | 6539 ft | 174 kts | 197° |
| 2026-05-05 01:31 | -19.70532 | -40.03187 | 6540 ft | 174 kts | 197° |
| 2026-05-05 01:31 | -19.71690 | -40.03578 | 6536 ft | 175 kts | 197° |
| 2026-05-05 01:32 | -19.72846 | -40.03969 | 6543 ft | 175 kts | 197° |
| 2026-05-05 01:32 | -19.74005 | -40.04363 | 6540 ft | 175 kts | 197° |
| 2026-05-05 01:32 | -19.75168 | -40.04755 | 6543 ft | 175 kts | 197° |
| 2026-05-05 01:32 | -19.76334 | -40.05152 | 6547 ft | 177 kts | 197° |
| 2026-05-05 01:33 | -19.77503 | -40.05547 | 6546 ft | 176 kts | 197° |
| 2026-05-05 01:33 | -19.78673 | -40.05937 | 6548 ft | 177 kts | 197° |
| 2026-05-05 01:33 | -19.79844 | -40.06328 | 6549 ft | 176 kts | 197° |
| 2026-05-05 01:33 | -19.81013 | -40.06719 | 6548 ft | 176 kts | 197° |
| 2026-05-05 01:34 | -19.82183 | -40.07108 | 6544 ft | 176 kts | 197° |
| 2026-05-05 01:34 | -19.83348 | -40.07498 | 6542 ft | 175 kts | 197° |
| 2026-05-05 01:34 | -19.84513 | -40.07887 | 6543 ft | 176 kts | 197° |
| 2026-05-05 01:34 | -19.85676 | -40.08276 | 6541 ft | 175 kts | 197° |
| 2026-05-05 01:35 | -19.86830 | -40.08673 | 6543 ft | 174 kts | 199° |
| 2026-05-05 01:35 | -19.87959 | -40.09178 | 6509 ft | 177 kts | 203° |
| 2026-05-05 01:35 | -19.89084 | -40.09708 | 6502 ft | 176 kts | 204° |
| 2026-05-05 01:35 | -19.90184 | -40.10269 | 6505 ft | 175 kts | 205° |
| 2026-05-05 01:36 | -19.91277 | -40.10829 | 6500 ft | 174 kts | 205° |
| 2026-05-05 01:36 | -19.92367 | -40.11387 | 6500 ft | 174 kts | 205° |
| 2026-05-05 01:36 | -19.93462 | -40.11946 | 6504 ft | 175 kts | 204° |
| 2026-05-05 01:36 | -19.94555 | -40.12503 | 6500 ft | 174 kts | 205° |
| 2026-05-05 01:37 | -19.95645 | -40.13060 | 6498 ft | 174 kts | 205° |
| 2026-05-05 01:37 | -19.96734 | -40.13615 | 6507 ft | 174 kts | 205° |
| 2026-05-05 01:37 | -19.97827 | -40.14175 | 6508 ft | 175 kts | 205° |
| 2026-05-05 01:37 | -19.98925 | -40.14739 | 6511 ft | 175 kts | 205° |
| 2026-05-05 01:38 | -20.00007 | -40.15337 | 6511 ft | 176 kts | 207° |
| 2026-05-05 01:38 | -20.01065 | -40.15953 | 6513 ft | 176 kts | 208° |
| 2026-05-05 01:38 | -20.02144 | -40.16581 | 6507 ft | 176 kts | 207° |
| 2026-05-05 01:38 | -20.03217 | -40.17205 | 6511 ft | 176 kts | 207° |
| 2026-05-05 01:39 | -20.04289 | -40.17831 | 6507 ft | 175 kts | 208° |
| 2026-05-05 01:39 | -20.05354 | -40.18451 | 6509 ft | 174 kts | 207° |
| 2026-05-05 01:39 | -20.06417 | -40.19071 | 6512 ft | 174 kts | 208° |
| 2026-05-05 01:39 | -20.07512 | -40.19619 | 6509 ft | 174 kts | 198° |
| 2026-05-05 01:40 | -20.08676 | -40.19982 | 6433 ft | 177 kts | 195° |
| 2026-05-05 01:40 | -20.09893 | -40.20356 | 6192 ft | 186 kts | 195° |
| 2026-05-05 01:40 | -20.11142 | -40.20749 | 5951 ft | 189 kts | 195° |
| 2026-05-05 01:40 | -20.12406 | -40.21156 | 5713 ft | 191 kts | 196° |
| 2026-05-05 01:41 | -20.13695 | -40.21514 | 5473 ft | 192 kts | 191° |
| 2026-05-05 01:41 | -20.15009 | -40.21794 | 5234 ft | 193 kts | 190° |
| 2026-05-05 01:41 | -20.16324 | -40.22079 | 4999 ft | 193 kts | 189° |
| 2026-05-05 01:41 | -20.17645 | -40.22374 | 4756 ft | 195 kts | 189° |
| 2026-05-05 01:42 | -20.18975 | -40.22673 | 4526 ft | 194 kts | 189° |
| 2026-05-05 01:42 | -20.20260 | -40.22972 | 4523 ft | 185 kts | 190° |
| 2026-05-05 01:42 | -20.21497 | -40.23258 | 4511 ft | 179 kts | 189° |
| 2026-05-05 01:42 | -20.22703 | -40.23536 | 4516 ft | 176 kts | 190° |
| 2026-05-05 01:43 | -20.23889 | -40.23809 | 4514 ft | 173 kts | 189° |
| 2026-05-05 01:43 | -20.25074 | -40.24082 | 4519 ft | 175 kts | 190° |
| 2026-05-05 01:43 | -20.26262 | -40.24355 | 4512 ft | 174 kts | 190° |
| 2026-05-05 01:43 | -20.27400 | -40.24813 | 4515 ft | 176 kts | 203° |
| 2026-05-05 01:44 | -20.28492 | -40.25373 | 4513 ft | 176 kts | 202° |
| 2026-05-05 01:44 | -20.29590 | -40.25939 | 4512 ft | 175 kts | 203° |
| 2026-05-05 01:44 | -20.30683 | -40.26497 | 4516 ft | 174 kts | 203° |
| 2026-05-05 01:44 | -20.31782 | -40.27060 | 4515 ft | 176 kts | 203° |
| 2026-05-05 01:45 | -20.32890 | -40.27621 | 4520 ft | 177 kts | 203° |
| 2026-05-05 01:45 | -20.34008 | -40.28187 | 4524 ft | 179 kts | 202° |
| 2026-05-05 01:45 | -20.35136 | -40.28762 | 4530 ft | 181 kts | 203° |
| 2026-05-05 01:45 | -20.36276 | -40.29342 | 4523 ft | 181 kts | 202° |
| 2026-05-05 01:46 | -20.37409 | -40.29918 | 4523 ft | 180 kts | 203° |
| 2026-05-05 01:46 | -20.38540 | -40.30497 | 4521 ft | 181 kts | 203° |
| 2026-05-05 01:46 | -20.39676 | -40.31079 | 4518 ft | 181 kts | 203° |
| 2026-05-05 01:46 | -20.40815 | -40.31659 | 4515 ft | 182 kts | 202° |
| 2026-05-05 01:47 | -20.41957 | -40.32235 | 4519 ft | 182 kts | 203° |
| 2026-05-05 01:47 | -20.43107 | -40.32814 | 4511 ft | 182 kts | 204° |
| 2026-05-05 01:47 | -20.44245 | -40.33392 | 4511 ft | 180 kts | 202° |
| 2026-05-05 01:47 | -20.45360 | -40.34014 | 4457 ft | 184 kts | 207° |
| 2026-05-05 01:48 | -20.46496 | -40.34729 | 4209 ft | 194 kts | 208° |
| 2026-05-05 01:48 | -20.47681 | -40.35465 | 3980 ft | 200 kts | 208° |
| 2026-05-05 01:48 | -20.48885 | -40.36228 | 3734 ft | 201 kts | 208° |
| 2026-05-05 01:48 | -20.50086 | -40.36989 | 3527 ft | 199 kts | 208° |
| 2026-05-05 01:49 | -20.51238 | -40.37724 | 3528 ft | 191 kts | 208° |
| 2026-05-05 01:49 | -20.52363 | -40.38442 | 3521 ft | 187 kts | 208° |
| 2026-05-05 01:49 | -20.53475 | -40.39156 | 3514 ft | 186 kts | 208° |
| 2026-05-05 01:49 | -20.54578 | -40.39862 | 3511 ft | 184 kts | 208° |
| 2026-05-05 01:50 | -20.55677 | -40.40562 | 3512 ft | 184 kts | 208° |
| 2026-05-05 01:50 | -20.56401 | -40.41027 | 3510 ft | 183 kts | 208° |
| 2026-05-05 01:50 | -20.57490 | -40.41725 | 3510 ft | 182 kts | 208° |
| 2026-05-05 01:50 | -20.58569 | -40.42423 | 3515 ft | 181 kts | 208° |
| 2026-05-05 01:51 | -20.59644 | -40.43121 | 3513 ft | 180 kts | 208° |
| 2026-05-05 01:51 | -20.60712 | -40.43813 | 3519 ft | 180 kts | 208° |
| 2026-05-05 01:51 | -20.61782 | -40.44507 | 3532 ft | 179 kts | 208° |
| 2026-05-05 01:51 | -20.62848 | -40.45194 | 3540 ft | 179 kts | 208° |
| 2026-05-05 01:52 | -20.63909 | -40.45880 | 3549 ft | 178 kts | 208° |
| 2026-05-05 01:52 | -20.64969 | -40.46562 | 3544 ft | 178 kts | 207° |
| 2026-05-05 01:52 | -20.66029 | -40.47246 | 3550 ft | 178 kts | 208° |
| 2026-05-05 01:52 | -20.67092 | -40.47932 | 3540 ft | 178 kts | 208° |
| 2026-05-05 01:53 | -20.68152 | -40.48617 | 3537 ft | 179 kts | 208° |
| 2026-05-05 01:53 | -20.69215 | -40.49306 | 3535 ft | 179 kts | 208° |
| 2026-05-05 01:53 | -20.70280 | -40.49991 | 3532 ft | 179 kts | 208° |
| 2026-05-05 01:53 | -20.71347 | -40.50676 | 3529 ft | 179 kts | 208° |
| 2026-05-05 01:54 | -20.72411 | -40.51362 | 3526 ft | 179 kts | 208° |
| 2026-05-05 01:54 | -20.73476 | -40.52047 | 3523 ft | 179 kts | 208° |
| 2026-05-05 01:54 | -20.74543 | -40.52732 | 3525 ft | 179 kts | 208° |
| 2026-05-05 01:54 | -20.75575 | -40.53479 | 3530 ft | 180 kts | 214° |
| 2026-05-05 01:55 | -20.76577 | -40.54283 | 3529 ft | 180 kts | 214° |
| 2026-05-05 01:55 | -20.77579 | -40.55084 | 3530 ft | 180 kts | 214° |
| 2026-05-05 01:55 | -20.78581 | -40.55888 | 3536 ft | 180 kts | 214° |
| 2026-05-05 01:55 | -20.79582 | -40.56692 | 3535 ft | 180 kts | 214° |
| 2026-05-05 01:56 | -20.80585 | -40.57496 | 3539 ft | 180 kts | 214° |
| 2026-05-05 01:56 | -20.81589 | -40.58302 | 3536 ft | 180 kts | 214° |
| 2026-05-05 01:56 | -20.82592 | -40.59109 | 3532 ft | 180 kts | 214° |
| 2026-05-05 01:56 | -20.83595 | -40.59916 | 3531 ft | 181 kts | 214° |
| 2026-05-05 01:57 | -20.84601 | -40.60724 | 3535 ft | 181 kts | 214° |
| 2026-05-05 01:57 | -20.85608 | -40.61533 | 3533 ft | 181 kts | 214° |
| 2026-05-05 01:57 | -20.86614 | -40.62345 | 3537 ft | 181 kts | 214° |
| 2026-05-05 01:57 | -20.87608 | -40.63145 | 3537 ft | 181 kts | 214° |
| 2026-05-05 01:58 | -20.88615 | -40.63959 | 3538 ft | 181 kts | 214° |
| 2026-05-05 01:58 | -20.89624 | -40.64772 | 3538 ft | 182 kts | 214° |
| 2026-05-05 01:58 | -20.90633 | -40.65588 | 3533 ft | 182 kts | 214° |
| 2026-05-05 01:58 | -20.91644 | -40.66404 | 3537 ft | 182 kts | 214° |
| 2026-05-05 01:59 | -20.92655 | -40.67221 | 3530 ft | 182 kts | 214° |
| 2026-05-05 01:59 | -20.93667 | -40.68039 | 3534 ft | 182 kts | 214° |
| 2026-05-05 01:59 | -20.94680 | -40.68855 | 3536 ft | 182 kts | 214° |
| 2026-05-05 01:59 | -20.95694 | -40.69672 | 3536 ft | 182 kts | 214° |
| 2026-05-05 02:00 | -20.96708 | -40.70486 | 3547 ft | 182 kts | 214° |
| 2026-05-05 02:00 | -20.97722 | -40.71299 | 3538 ft | 182 kts | 214° |
| 2026-05-05 02:00 | -20.98739 | -40.72113 | 3546 ft | 182 kts | 214° |
| 2026-05-05 02:00 | -20.99755 | -40.72927 | 3539 ft | 183 kts | 214° |
| 2026-05-05 02:01 | -21.00773 | -40.73742 | 3544 ft | 183 kts | 214° |
| 2026-05-05 02:01 | -21.01791 | -40.74556 | 3539 ft | 183 kts | 214° |
| 2026-05-05 02:01 | -21.02810 | -40.75373 | 3554 ft | 183 kts | 214° |
| 2026-05-05 02:01 | -21.03828 | -40.76187 | 3560 ft | 183 kts | 214° |
| 2026-05-05 02:02 | -21.04850 | -40.76999 | 3557 ft | 183 kts | 214° |
| 2026-05-05 02:02 | -21.05871 | -40.77811 | 3557 ft | 183 kts | 214° |
| 2026-05-05 02:02 | -21.06892 | -40.78622 | 3562 ft | 183 kts | 214° |
| 2026-05-05 02:02 | -21.07916 | -40.79434 | 3560 ft | 183 kts | 214° |
| 2026-05-05 02:03 | -21.08940 | -40.80244 | 3578 ft | 182 kts | 214° |
| 2026-05-05 02:03 | -21.09945 | -40.81036 | 3678 ft | 178 kts | 214° |
| 2026-05-05 02:03 | -21.10935 | -40.81815 | 3769 ft | 176 kts | 214° |
| 2026-05-05 02:03 | -21.11917 | -40.82584 | 3860 ft | 174 kts | 214° |
| 2026-05-05 02:04 | -21.12894 | -40.83344 | 3951 ft | 173 kts | 214° |
| 2026-05-05 02:04 | -21.13868 | -40.84102 | 4050 ft | 173 kts | 214° |
| 2026-05-05 02:04 | -21.14840 | -40.84852 | 4149 ft | 172 kts | 214° |
| 2026-05-05 02:04 | -21.15812 | -40.85599 | 4249 ft | 172 kts | 214° |
| 2026-05-05 02:05 | -21.16783 | -40.86342 | 4347 ft | 172 kts | 214° |
| 2026-05-05 02:05 | -21.17755 | -40.87082 | 4444 ft | 171 kts | 214° |
| 2026-05-05 02:05 | -21.18726 | -40.87819 | 4542 ft | 171 kts | 214° |
| 2026-05-05 02:05 | -21.19696 | -40.88553 | 4644 ft | 170 kts | 214° |
| 2026-05-05 02:06 | -21.20664 | -40.89283 | 4747 ft | 170 kts | 214° |
| 2026-05-05 02:06 | -21.21629 | -40.90011 | 4843 ft | 170 kts | 214° |
| 2026-05-05 02:06 | -21.22596 | -40.90736 | 4941 ft | 169 kts | 214° |
| 2026-05-05 02:06 | -21.23548 | -40.91446 | 5041 ft | 169 kts | 214° |
| 2026-05-05 02:07 | -21.24512 | -40.92162 | 5138 ft | 168 kts | 214° |
| 2026-05-05 02:07 | -21.25478 | -40.92871 | 5234 ft | 168 kts | 214° |
| 2026-05-05 02:07 | -21.26441 | -40.93575 | 5330 ft | 168 kts | 214° |
| 2026-05-05 02:07 | -21.27407 | -40.94275 | 5432 ft | 167 kts | 214° |
| 2026-05-05 02:08 | -21.28372 | -40.94974 | 5528 ft | 167 kts | 214° |
| 2026-05-05 02:08 | -21.29335 | -40.95669 | 5625 ft | 167 kts | 214° |
| 2026-05-05 02:08 | -21.30306 | -40.96365 | 5728 ft | 168 kts | 214° |
| 2026-05-05 02:08 | -21.31279 | -40.97063 | 5822 ft | 168 kts | 214° |
| 2026-05-05 02:09 | -21.32255 | -40.97758 | 5922 ft | 168 kts | 214° |
| 2026-05-05 02:09 | -21.33228 | -40.98446 | 6022 ft | 168 kts | 214° |
| 2026-05-05 02:09 | -21.34202 | -40.99134 | 6122 ft | 167 kts | 214° |
| 2026-05-05 02:09 | -21.35176 | -40.99818 | 6220 ft | 167 kts | 214° |
| 2026-05-05 02:10 | -21.36148 | -41.00498 | 6316 ft | 167 kts | 214° |
| 2026-05-05 02:10 | -21.37121 | -41.01176 | 6421 ft | 166 kts | 214° |
| 2026-05-05 02:10 | -21.38095 | -41.01848 | 6494 ft | 168 kts | 214° |
| 2026-05-05 02:10 | -21.39088 | -41.02534 | 6500 ft | 172 kts | 214° |
| 2026-05-05 02:11 | -21.40097 | -41.03235 | 6497 ft | 174 kts | 214° |
| 2026-05-05 02:11 | -21.41116 | -41.03943 | 6505 ft | 175 kts | 214° |
| 2026-05-05 02:11 | -21.42137 | -41.04653 | 6509 ft | 175 kts | 214° |
| 2026-05-05 02:11 | -21.43164 | -41.05366 | 6508 ft | 176 kts | 214° |
| 2026-05-05 02:12 | -21.44188 | -41.06082 | 6510 ft | 176 kts | 214° |
| 2026-05-05 02:12 | -21.46246 | -41.07514 | 6506 ft | 177 kts | 214° |
| 2026-05-05 02:12 | -21.47277 | -41.08232 | 6506 ft | 177 kts | 214° |
| 2026-05-05 02:13 | -21.48307 | -41.08949 | 6507 ft | 176 kts | 214° |
| 2026-05-05 02:13 | -21.49335 | -41.09664 | 6507 ft | 176 kts | 214° |
| 2026-05-05 02:13 | -21.50368 | -41.10383 | 6508 ft | 177 kts | 214° |
| 2026-05-05 02:13 | -21.51402 | -41.11104 | 6501 ft | 177 kts | 214° |
| 2026-05-05 02:14 | -21.52434 | -41.11824 | 6497 ft | 176 kts | 214° |
| 2026-05-05 02:14 | -21.53464 | -41.12543 | 6505 ft | 177 kts | 214° |
| 2026-05-05 02:14 | -21.54496 | -41.13264 | 6503 ft | 177 kts | 214° |
| 2026-05-05 02:14 | -21.55529 | -41.13985 | 6505 ft | 177 kts | 214° |
| 2026-05-05 02:15 | -21.56563 | -41.14705 | 6507 ft | 177 kts | 214° |
| 2026-05-05 02:15 | -21.57592 | -41.15423 | 6505 ft | 177 kts | 214° |
| 2026-05-05 02:15 | -21.58623 | -41.16141 | 6506 ft | 177 kts | 214° |
| 2026-05-05 02:15 | -21.59651 | -41.16860 | 6504 ft | 176 kts | 214° |
| 2026-05-05 02:16 | -21.60662 | -41.17567 | 6502 ft | 176 kts | 214° |
| 2026-05-05 02:16 | -21.61688 | -41.18284 | 6504 ft | 176 kts | 214° |
| 2026-05-05 02:16 | -21.62717 | -41.19003 | 6500 ft | 176 kts | 214° |
| 2026-05-05 02:16 | -21.63743 | -41.19723 | 6498 ft | 177 kts | 214° |
| 2026-05-05 02:17 | -21.64773 | -41.20446 | 6504 ft | 177 kts | 214° |
| 2026-05-05 02:17 | -21.65806 | -41.21173 | 6502 ft | 178 kts | 214° |
| 2026-05-05 02:17 | -21.66839 | -41.21899 | 6501 ft | 177 kts | 214° |
| 2026-05-05 02:17 | -21.67874 | -41.22625 | 6507 ft | 178 kts | 214° |
| 2026-05-05 02:18 | -21.68909 | -41.23354 | 6503 ft | 178 kts | 214° |
| 2026-05-05 02:18 | -21.69942 | -41.24082 | 6507 ft | 178 kts | 214° |
| 2026-05-05 02:18 | -21.70974 | -41.24812 | 6510 ft | 178 kts | 214° |
| 2026-05-05 02:18 | -21.72010 | -41.25545 | 6500 ft | 178 kts | 214° |
| 2026-05-05 02:19 | -21.73046 | -41.26274 | 6503 ft | 178 kts | 214° |
| 2026-05-05 02:19 | -21.74079 | -41.27006 | 6506 ft | 178 kts | 214° |
| 2026-05-05 02:19 | -21.75111 | -41.27741 | 6509 ft | 178 kts | 214° |
| 2026-05-05 02:19 | -21.76148 | -41.28476 | 6506 ft | 178 kts | 214° |
| 2026-05-05 02:20 | -21.77182 | -41.29212 | 6508 ft | 179 kts | 214° |
| 2026-05-05 02:20 | -21.78220 | -41.29950 | 6511 ft | 179 kts | 214° |
| 2026-05-05 02:20 | -21.79259 | -41.30688 | 6508 ft | 179 kts | 214° |
| 2026-05-05 02:20 | -21.80296 | -41.31427 | 6506 ft | 179 kts | 214° |
| 2026-05-05 02:21 | -21.81330 | -41.32162 | 6504 ft | 178 kts | 214° |
| 2026-05-05 02:21 | -21.82348 | -41.32912 | 6498 ft | 177 kts | 217° |
| 2026-05-05 02:21 | -21.83328 | -41.33721 | 6501 ft | 178 kts | 218° |
| 2026-05-05 02:21 | -21.84307 | -41.34534 | 6495 ft | 178 kts | 218° |
| 2026-05-05 02:22 | -21.85287 | -41.35344 | 6501 ft | 178 kts | 218° |
| 2026-05-05 02:22 | -21.86267 | -41.36158 | 6500 ft | 178 kts | 218° |
| 2026-05-05 02:22 | -21.87249 | -41.36973 | 6507 ft | 179 kts | 218° |
| 2026-05-05 02:22 | -21.88235 | -41.37790 | 6504 ft | 178 kts | 218° |
| 2026-05-05 02:23 | -21.89220 | -41.38605 | 6503 ft | 179 kts | 218° |
| 2026-05-05 02:23 | -21.90191 | -41.39407 | 6511 ft | 179 kts | 218° |
| 2026-05-05 02:23 | -21.91173 | -41.40226 | 6503 ft | 178 kts | 218° |
| 2026-05-05 02:23 | -21.92150 | -41.41037 | 6503 ft | 177 kts | 218° |
| 2026-05-05 02:24 | -21.93126 | -41.41848 | 6505 ft | 178 kts | 218° |
| 2026-05-05 02:24 | -21.94109 | -41.42662 | 6500 ft | 178 kts | 218° |
| 2026-05-05 02:24 | -21.95090 | -41.43475 | 6507 ft | 179 kts | 218° |
| 2026-05-05 02:24 | -21.96074 | -41.44294 | 6500 ft | 178 kts | 218° |
| 2026-05-05 02:25 | -21.97054 | -41.45109 | 6510 ft | 178 kts | 218° |
| 2026-05-05 02:25 | -21.98030 | -41.45926 | 6528 ft | 178 kts | 218° |
| 2026-05-05 02:25 | -21.98971 | -41.46791 | 6523 ft | 178 kts | 223° |
| 2026-05-05 02:25 | -21.99862 | -41.47715 | 6520 ft | 177 kts | 224° |
| 2026-05-05 02:26 | -22.00751 | -41.48637 | 6524 ft | 178 kts | 224° |
| 2026-05-05 02:26 | -22.01641 | -41.49559 | 6521 ft | 177 kts | 224° |
| 2026-05-05 02:26 | -22.02529 | -41.50484 | 6522 ft | 178 kts | 224° |
| 2026-05-05 02:26 | -22.03418 | -41.51410 | 6523 ft | 178 kts | 224° |
| 2026-05-05 02:27 | -22.04307 | -41.52337 | 6517 ft | 177 kts | 224° |
| 2026-05-05 02:27 | -22.05189 | -41.53257 | 6519 ft | 176 kts | 224° |
| 2026-05-05 02:27 | -22.06068 | -41.54177 | 6519 ft | 176 kts | 224° |
| 2026-05-05 02:27 | -22.06952 | -41.55100 | 6523 ft | 177 kts | 224° |
| 2026-05-05 02:28 | -22.07837 | -41.56023 | 6521 ft | 177 kts | 224° |
| 2026-05-05 02:28 | -22.08721 | -41.56945 | 6517 ft | 176 kts | 224° |
| 2026-05-05 02:28 | -22.09602 | -41.57866 | 6515 ft | 176 kts | 224° |
| 2026-05-05 02:28 | -22.10481 | -41.58786 | 6515 ft | 176 kts | 224° |
| 2026-05-05 02:29 | -22.11348 | -41.59695 | 6512 ft | 176 kts | 224° |
| 2026-05-05 02:29 | -22.12227 | -41.60614 | 6509 ft | 176 kts | 224° |
| 2026-05-05 02:29 | -22.13108 | -41.61533 | 6509 ft | 176 kts | 224° |
| 2026-05-05 02:29 | -22.13988 | -41.62450 | 6507 ft | 176 kts | 224° |
| 2026-05-05 02:30 | -22.14865 | -41.63369 | 6508 ft | 175 kts | 224° |
| 2026-05-05 02:30 | -22.15738 | -41.64287 | 6507 ft | 176 kts | 224° |
| 2026-05-05 02:30 | -22.16618 | -41.65210 | 6507 ft | 176 kts | 224° |
| 2026-05-05 02:30 | -22.17500 | -41.66134 | 6507 ft | 177 kts | 224° |
| 2026-05-05 02:31 | -22.18381 | -41.67061 | 6507 ft | 177 kts | 224° |
| 2026-05-05 02:31 | -22.19265 | -41.67988 | 6505 ft | 177 kts | 224° |
| 2026-05-05 02:31 | -22.20147 | -41.68916 | 6501 ft | 177 kts | 224° |
| 2026-05-05 02:31 | -22.21026 | -41.69842 | 6498 ft | 176 kts | 224° |
| 2026-05-05 02:32 | -22.21902 | -41.70773 | 6497 ft | 177 kts | 225° |
| 2026-05-05 02:32 | -22.22753 | -41.71734 | 6499 ft | 177 kts | 226° |
| 2026-05-05 02:32 | -22.23599 | -41.72694 | 6496 ft | 177 kts | 226° |
| 2026-05-05 02:32 | -22.24445 | -41.73656 | 6493 ft | 177 kts | 226° |
| 2026-05-05 02:33 | -22.25291 | -41.74617 | 6492 ft | 177 kts | 226° |
| 2026-05-05 02:33 | -22.26137 | -41.75580 | 6493 ft | 176 kts | 226° |
| 2026-05-05 02:33 | -22.26977 | -41.76541 | 6496 ft | 177 kts | 226° |
| 2026-05-05 02:33 | -22.27824 | -41.77509 | 6493 ft | 177 kts | 226° |
| 2026-05-05 02:34 | -22.28665 | -41.78476 | 6495 ft | 177 kts | 226° |
| 2026-05-05 02:34 | -22.29509 | -41.79449 | 6496 ft | 178 kts | 226° |
| 2026-05-05 02:34 | -22.30355 | -41.80422 | 6495 ft | 178 kts | 226° |
| 2026-05-05 02:34 | -22.31199 | -41.81392 | 6495 ft | 177 kts | 226° |
| 2026-05-05 02:35 | -22.32043 | -41.82362 | 6492 ft | 177 kts | 226° |
| 2026-05-05 02:35 | -22.32883 | -41.83330 | 6490 ft | 177 kts | 226° |
| 2026-05-05 02:35 | -22.33725 | -41.84296 | 6488 ft | 177 kts | 226° |
| 2026-05-05 02:35 | -22.34565 | -41.85261 | 6499 ft | 177 kts | 226° |
| 2026-05-05 02:36 | -22.35410 | -41.86236 | 6498 ft | 177 kts | 226° |
| 2026-05-05 02:36 | -22.36246 | -41.87219 | 6497 ft | 178 kts | 228° |
| 2026-05-05 02:36 | -22.37022 | -41.88259 | 6495 ft | 177 kts | 231° |
| 2026-05-05 02:36 | -22.37781 | -41.89310 | 6496 ft | 177 kts | 231° |
| 2026-05-05 02:37 | -22.38540 | -41.90361 | 6504 ft | 178 kts | 231° |
| 2026-05-05 02:37 | -22.39304 | -41.91416 | 6496 ft | 178 kts | 231° |
| 2026-05-05 02:37 | -22.40063 | -41.92468 | 6498 ft | 177 kts | 231° |
| 2026-05-05 02:37 | -22.40565 | -41.93162 | 6499 ft | 177 kts | 231° |
| 2026-05-05 02:38 | -22.41322 | -41.94214 | 6502 ft | 178 kts | 231° |
| 2026-05-05 02:38 | -22.42079 | -41.95264 | 6502 ft | 177 kts | 231° |
| 2026-05-05 02:38 | -22.42830 | -41.96309 | 6508 ft | 176 kts | 231° |
| 2026-05-05 02:38 | -22.43569 | -41.97340 | 6516 ft | 174 kts | 231° |
| 2026-05-05 02:39 | -22.44312 | -41.98374 | 6519 ft | 175 kts | 231° |
| 2026-05-05 02:39 | -22.45062 | -41.99417 | 6524 ft | 176 kts | 231° |
| 2026-05-05 02:39 | -22.45816 | -42.00465 | 6520 ft | 177 kts | 231° |
| 2026-05-05 02:39 | -22.46571 | -42.01515 | 6522 ft | 177 kts | 231° |
| 2026-05-05 02:40 | -22.47324 | -42.02560 | 6524 ft | 177 kts | 231° |
| 2026-05-05 02:40 | -22.48079 | -42.03609 | 6524 ft | 177 kts | 231° |
| 2026-05-05 02:40 | -22.48835 | -42.04660 | 6529 ft | 177 kts | 231° |
| 2026-05-05 02:40 | -22.49589 | -42.05711 | 6525 ft | 177 kts | 231° |
| 2026-05-05 02:41 | -22.50344 | -42.06767 | 6524 ft | 177 kts | 231° |
| 2026-05-05 02:41 | -22.51099 | -42.07818 | 6524 ft | 177 kts | 231° |
| 2026-05-05 02:41 | -22.51853 | -42.08865 | 6526 ft | 176 kts | 231° |
| 2026-05-05 02:41 | -22.52606 | -42.09914 | 6531 ft | 177 kts | 229° |
| 2026-05-05 02:42 | -22.53494 | -42.10833 | 6529 ft | 176 kts | 220° |
| 2026-05-05 02:42 | -22.54408 | -42.11682 | 6531 ft | 176 kts | 220° |
| 2026-05-05 02:42 | -22.55337 | -42.12546 | 6533 ft | 176 kts | 220° |
| 2026-05-05 02:42 | -22.56268 | -42.13413 | 6523 ft | 177 kts | 220° |
| 2026-05-05 02:43 | -22.57198 | -42.14280 | 6519 ft | 176 kts | 220° |
| 2026-05-05 02:43 | -22.58125 | -42.15146 | 6521 ft | 177 kts | 220° |
| 2026-05-05 02:43 | -22.59056 | -42.16017 | 6523 ft | 177 kts | 220° |
| 2026-05-05 02:43 | -22.59990 | -42.16894 | 6521 ft | 178 kts | 220° |
| 2026-05-05 02:44 | -22.60934 | -42.17753 | 6525 ft | 177 kts | 218° |
| 2026-05-05 02:44 | -22.61896 | -42.18597 | 6525 ft | 178 kts | 218° |
| 2026-05-05 02:44 | -22.62861 | -42.19442 | 6524 ft | 179 kts | 218° |
| 2026-05-05 02:44 | -22.63825 | -42.20279 | 6518 ft | 177 kts | 218° |
| 2026-05-05 02:45 | -22.64783 | -42.21115 | 6513 ft | 176 kts | 218° |
| 2026-05-05 02:45 | -22.65740 | -42.21945 | 6512 ft | 176 kts | 218° |
| 2026-05-05 02:45 | -22.66694 | -42.22777 | 6512 ft | 177 kts | 219° |
| 2026-05-05 02:45 | -22.67649 | -42.23615 | 6514 ft | 177 kts | 219° |
| 2026-05-05 02:46 | -22.68604 | -42.24449 | 6514 ft | 176 kts | 218° |
| 2026-05-05 02:46 | -22.69559 | -42.25282 | 6511 ft | 176 kts | 218° |
| 2026-05-05 02:46 | -22.70515 | -42.26116 | 6512 ft | 176 kts | 218° |
| 2026-05-05 02:46 | -22.71469 | -42.26948 | 6511 ft | 176 kts | 218° |
| 2026-05-05 02:47 | -22.72424 | -42.27779 | 6509 ft | 176 kts | 218° |
| 2026-05-05 02:47 | -22.73379 | -42.28614 | 6511 ft | 177 kts | 218° |
| 2026-05-05 02:47 | -22.74337 | -42.29451 | 6511 ft | 177 kts | 218° |
| 2026-05-05 02:47 | -22.75280 | -42.30275 | 6510 ft | 177 kts | 218° |
| 2026-05-05 02:48 | -22.76236 | -42.31111 | 6515 ft | 177 kts | 218° |
| 2026-05-05 02:48 | -22.77193 | -42.31948 | 6510 ft | 176 kts | 218° |
| 2026-05-05 02:48 | -22.78145 | -42.32782 | 6507 ft | 176 kts | 218° |
| 2026-05-05 02:48 | -22.79096 | -42.33613 | 6510 ft | 176 kts | 218° |
| 2026-05-05 02:49 | -22.80049 | -42.34447 | 6508 ft | 176 kts | 218° |
| 2026-05-05 02:49 | -22.81001 | -42.35279 | 6506 ft | 176 kts | 218° |
| 2026-05-05 02:49 | -22.81951 | -42.36112 | 6511 ft | 175 kts | 218° |
| 2026-05-05 02:49 | -22.82902 | -42.36942 | 6507 ft | 175 kts | 218° |
| 2026-05-05 02:50 | -22.83850 | -42.37772 | 6506 ft | 175 kts | 218° |
| 2026-05-05 02:50 | -22.84798 | -42.38600 | 6510 ft | 175 kts | 218° |
| 2026-05-05 02:50 | -22.85745 | -42.39432 | 6509 ft | 176 kts | 218° |
| 2026-05-05 02:50 | -22.86693 | -42.40266 | 6507 ft | 175 kts | 219° |
| 2026-05-05 02:51 | -22.87638 | -42.41096 | 6509 ft | 175 kts | 218° |
| 2026-05-05 02:51 | -22.88580 | -42.41927 | 6507 ft | 174 kts | 219° |
| 2026-05-05 02:51 | -22.89520 | -42.42757 | 6505 ft | 174 kts | 219° |
| 2026-05-05 02:51 | -22.90452 | -42.43590 | 6502 ft | 173 kts | 221° |
| 2026-05-05 02:52 | -22.91138 | -42.44654 | 6488 ft | 176 kts | 250° |
| 2026-05-05 02:52 | -22.91352 | -42.45964 | 6502 ft | 177 kts | 258° |
| 2026-05-05 02:52 | -22.91537 | -42.47308 | 6320 ft | 185 kts | 258° |
| 2026-05-05 02:52 | -22.91742 | -42.48709 | 6080 ft | 190 kts | 258° |
| 2026-05-05 02:53 | -22.91982 | -42.50125 | 5836 ft | 191 kts | 255° |
| 2026-05-05 02:53 | -22.92312 | -42.51526 | 5597 ft | 193 kts | 254° |
| 2026-05-05 02:53 | -22.92675 | -42.52924 | 5362 ft | 193 kts | 252° |
| 2026-05-05 02:53 | -22.93123 | -42.54306 | 5125 ft | 195 kts | 250° |
| 2026-05-05 02:54 | -22.93599 | -42.55691 | 4879 ft | 196 kts | 250° |
| 2026-05-05 02:54 | -22.94079 | -42.57071 | 4625 ft | 196 kts | 250° |
| 2026-05-05 02:54 | -22.94568 | -42.58454 | 4376 ft | 196 kts | 250° |
| 2026-05-05 02:54 | -22.95024 | -42.59850 | 4127 ft | 197 kts | 256° |
| 2026-05-05 02:55 | -22.95338 | -42.61301 | 3884 ft | 198 kts | 259° |
| 2026-05-05 02:55 | -22.95646 | -42.62760 | 3645 ft | 199 kts | 259° |
| 2026-05-05 02:55 | -22.95962 | -42.64216 | 3531 ft | 195 kts | 259° |
| 2026-05-05 02:55 | -22.96270 | -42.65617 | 3523 ft | 188 kts | 258° |
| 2026-05-05 02:56 | -22.96588 | -42.66978 | 3519 ft | 185 kts | 258° |
| 2026-05-05 02:56 | -22.96905 | -42.68320 | 3510 ft | 182 kts | 258° |
| 2026-05-05 02:56 | -22.97218 | -42.69647 | 3518 ft | 181 kts | 257° |
| 2026-05-05 02:56 | -22.97533 | -42.70967 | 3514 ft | 181 kts | 257° |
| 2026-05-05 02:57 | -22.97849 | -42.72281 | 3496 ft | 181 kts | 257° |
| 2026-05-05 02:57 | -22.98167 | -42.73620 | 3372 ft | 185 kts | 258° |
| 2026-05-05 02:57 | -22.98496 | -42.74981 | 3250 ft | 188 kts | 258° |
| 2026-05-05 02:57 | -22.98828 | -42.76358 | 3129 ft | 189 kts | 257° |
| 2026-05-05 02:58 | -22.99166 | -42.77741 | 3027 ft | 189 kts | 258° |
| 2026-05-05 02:58 | -22.99505 | -42.79105 | 3021 ft | 186 kts | 258° |
| 2026-05-05 02:58 | -22.99846 | -42.80446 | 3016 ft | 184 kts | 257° |
| 2026-05-05 02:58 | -23.00180 | -42.81783 | 3015 ft | 183 kts | 259° |
| 2026-05-05 02:59 | -23.00461 | -42.83123 | 3011 ft | 181 kts | 260° |
| 2026-05-05 02:59 | -23.00721 | -42.84463 | 3003 ft | 182 kts | 259° |
| 2026-05-05 02:59 | -23.00977 | -42.85798 | 3010 ft | 180 kts | 261° |
| 2026-05-05 02:59 | -23.01237 | -42.87126 | 3003 ft | 179 kts | 260° |
| 2026-05-05 03:00 | -23.01499 | -42.88443 | 2952 ft | 181 kts | 261° |
| 2026-05-05 03:00 | -23.01749 | -42.89808 | 2783 ft | 186 kts | 263° |
| 2026-05-05 03:00 | -23.01957 | -42.91209 | 2612 ft | 190 kts | 263° |
| 2026-05-05 03:00 | -23.02160 | -42.92625 | 2522 ft | 188 kts | 264° |
| 2026-05-05 03:01 | -23.02364 | -42.94013 | 2513 ft | 184 kts | 264° |
| 2026-05-05 03:01 | -23.02569 | -42.95373 | 2514 ft | 182 kts | 264° |
| 2026-05-05 03:01 | -23.02776 | -42.96722 | 2510 ft | 181 kts | 264° |
| 2026-05-05 03:01 | -23.02925 | -42.98074 | 2514 ft | 180 kts | 266° |
| 2026-05-05 03:02 | -23.03061 | -42.99427 | 2516 ft | 181 kts | 266° |
| 2026-05-05 03:02 | -23.03195 | -43.00783 | 2509 ft | 180 kts | 266° |
| 2026-05-05 03:02 | -23.03322 | -43.02137 | 2512 ft | 181 kts | 266° |
| 2026-05-05 03:02 | -23.03464 | -43.03491 | 2510 ft | 180 kts | 265° |
| 2026-05-05 03:03 | -23.03615 | -43.04826 | 2507 ft | 180 kts | 265° |
| 2026-05-05 03:03 | -23.03764 | -43.06173 | 2505 ft | 179 kts | 266° |
| 2026-05-05 03:03 | -23.03912 | -43.07518 | 2509 ft | 179 kts | 266° |
| 2026-05-05 03:03 | -23.04062 | -43.08861 | 2507 ft | 180 kts | 265° |
| 2026-05-05 03:04 | -23.04222 | -43.10223 | 2511 ft | 179 kts | 265° |
| 2026-05-05 03:04 | -23.04377 | -43.11549 | 2504 ft | 179 kts | 266° |
| 2026-05-05 03:04 | -23.04532 | -43.12885 | 2511 ft | 179 kts | 266° |
| 2026-05-05 03:04 | -23.04691 | -43.14223 | 2515 ft | 179 kts | 265° |
| 2026-05-05 03:05 | -23.04848 | -43.15570 | 2512 ft | 180 kts | 266° |
| 2026-05-05 03:05 | -23.05006 | -43.16920 | 2513 ft | 180 kts | 265° |
| 2026-05-05 03:05 | -23.05161 | -43.18269 | 2506 ft | 181 kts | 266° |
| 2026-05-05 03:05 | -23.05317 | -43.19619 | 2515 ft | 180 kts | 265° |
| 2026-05-05 03:06 | -23.05478 | -43.20968 | 2509 ft | 180 kts | 265° |
| 2026-05-05 03:06 | -23.05632 | -43.22320 | 2508 ft | 180 kts | 265° |
| 2026-05-05 03:06 | -23.05777 | -43.23673 | 2508 ft | 181 kts | 266° |
| 2026-05-05 03:06 | -23.05930 | -43.25024 | 2500 ft | 180 kts | 265° |
| 2026-05-05 03:07 | -23.06079 | -43.26370 | 2506 ft | 179 kts | 266° |
| 2026-05-05 03:07 | -23.06233 | -43.27706 | 2508 ft | 178 kts | 265° |
| 2026-05-05 03:07 | -23.06385 | -43.29040 | 2495 ft | 178 kts | 265° |
| 2026-05-05 03:07 | -23.06534 | -43.30363 | 2503 ft | 176 kts | 266° |
| 2026-05-05 03:08 | -23.06687 | -43.31684 | 2494 ft | 176 kts | 265° |
| 2026-05-05 03:08 | -23.06835 | -43.33003 | 2502 ft | 176 kts | 265° |
| 2026-05-05 03:08 | -23.06990 | -43.34322 | 2499 ft | 176 kts | 266° |
| 2026-05-05 03:08 | -23.07153 | -43.35642 | 2503 ft | 176 kts | 265° |
| 2026-05-05 03:09 | -23.07314 | -43.36957 | 2506 ft | 176 kts | 265° |
| 2026-05-05 03:09 | -23.07478 | -43.38275 | 2502 ft | 177 kts | 265° |
| 2026-05-05 03:09 | -23.07644 | -43.39599 | 2502 ft | 178 kts | 265° |
| 2026-05-05 03:09 | -23.07813 | -43.40928 | 2506 ft | 177 kts | 265° |
| 2026-05-05 03:10 | -23.07983 | -43.42257 | 2502 ft | 178 kts | 266° |
| 2026-05-05 03:10 | -23.08151 | -43.43590 | 2509 ft | 178 kts | 265° |
| 2026-05-05 03:10 | -23.08323 | -43.44923 | 2513 ft | 178 kts | 265° |
| 2026-05-05 03:10 | -23.08544 | -43.46245 | 2502 ft | 179 kts | 257° |
| 2026-05-05 03:11 | -23.08934 | -43.47529 | 2503 ft | 179 kts | 254° |
| 2026-05-05 03:11 | -23.09326 | -43.48813 | 2504 ft | 179 kts | 255° |
| 2026-05-05 03:11 | -23.09700 | -43.50101 | 2508 ft | 179 kts | 257° |
| 2026-05-05 03:11 | -23.10059 | -43.51396 | 2504 ft | 180 kts | 256° |
| 2026-05-05 03:12 | -23.10420 | -43.52692 | 2505 ft | 179 kts | 257° |
| 2026-05-05 03:12 | -23.10787 | -43.53981 | 2508 ft | 179 kts | 256° |
| 2026-05-05 03:12 | -23.11152 | -43.55272 | 2497 ft | 178 kts | 256° |
| 2026-05-05 03:12 | -23.11503 | -43.56552 | 2505 ft | 177 kts | 257° |
| 2026-05-05 03:13 | -23.11859 | -43.57835 | 2503 ft | 177 kts | 256° |
| 2026-05-05 03:13 | -23.12210 | -43.59114 | 2501 ft | 177 kts | 257° |
| 2026-05-05 03:13 | -23.12575 | -43.60394 | 2499 ft | 178 kts | 256° |
| 2026-05-05 03:13 | -23.12932 | -43.61659 | 2501 ft | 178 kts | 257° |
| 2026-05-05 03:14 | -23.13300 | -43.62943 | 2504 ft | 178 kts | 256° |
| 2026-05-05 03:14 | -23.13668 | -43.64235 | 2505 ft | 179 kts | 257° |
| 2026-05-05 03:14 | -23.14027 | -43.65531 | 2503 ft | 179 kts | 257° |
| 2026-05-05 03:14 | -23.14366 | -43.66828 | 2499 ft | 178 kts | 260° |
| 2026-05-05 03:15 | -23.14653 | -43.68143 | 2501 ft | 179 kts | 261° |
| 2026-05-05 03:15 | -23.14929 | -43.69464 | 2501 ft | 179 kts | 261° |
| 2026-05-05 03:15 | -23.15217 | -43.70785 | 2500 ft | 180 kts | 260° |
| 2026-05-05 03:15 | -23.15512 | -43.72102 | 2497 ft | 179 kts | 261° |
| 2026-05-05 03:16 | -23.15808 | -43.73415 | 2500 ft | 179 kts | 261° |
| 2026-05-05 03:16 | -23.16099 | -43.74736 | 2500 ft | 180 kts | 261° |
| 2026-05-05 03:16 | -23.16397 | -43.76053 | 2499 ft | 180 kts | 261° |
| 2026-05-05 03:16 | -23.16707 | -43.77367 | 2496 ft | 180 kts | 260° |
| 2026-05-05 03:17 | -23.17006 | -43.78683 | 2501 ft | 179 kts | 261° |
| 2026-05-05 03:17 | -23.17303 | -43.79997 | 2502 ft | 179 kts | 261° |
| 2026-05-05 03:17 | -23.17606 | -43.81304 | 2501 ft | 178 kts | 260° |
| 2026-05-05 03:17 | -23.17904 | -43.82611 | 2497 ft | 179 kts | 260° |
| 2026-05-05 03:18 | -23.18203 | -43.83917 | 2552 ft | 176 kts | 261° |
| 2026-05-05 03:18 | -23.18491 | -43.85198 | 2675 ft | 172 kts | 261° |
| 2026-05-05 03:18 | -23.18784 | -43.86445 | 2792 ft | 169 kts | 260° |
| 2026-05-05 03:18 | -23.19068 | -43.87678 | 2904 ft | 168 kts | 260° |
| 2026-05-05 03:19 | -23.19628 | -43.90135 | 3150 ft | 167 kts | 261° |
| 2026-05-05 03:19 | -23.19895 | -43.91364 | 3273 ft | 167 kts | 262° |
| 2026-05-05 03:19 | -23.20161 | -43.92588 | 3400 ft | 166 kts | 262° |
| 2026-05-05 03:20 | -23.20421 | -43.93810 | 3512 ft | 167 kts | 262° |
| 2026-05-05 03:20 | -23.20678 | -43.95040 | 3631 ft | 167 kts | 261° |
| 2026-05-05 03:20 | -23.20934 | -43.96271 | 3753 ft | 167 kts | 261° |
| 2026-05-05 03:20 | -23.21188 | -43.97509 | 3872 ft | 168 kts | 261° |
| 2026-05-05 03:21 | -23.21434 | -43.98744 | 3992 ft | 167 kts | 262° |
| 2026-05-05 03:21 | -23.21676 | -43.99980 | 4115 ft | 167 kts | 262° |
| 2026-05-05 03:21 | -23.21904 | -44.01219 | 4236 ft | 167 kts | 261° |
| 2026-05-05 03:21 | -23.22032 | -44.02043 | 4318 ft | 167 kts | 263° |
| 2026-05-05 03:22 | -23.22257 | -44.03705 | 4479 ft | 166 kts | 263° |
| 2026-05-05 03:22 | -23.22415 | -44.04965 | 4490 ft | 171 kts | 263° |
| 2026-05-05 03:22 | -23.22522 | -44.05818 | 4492 ft | 173 kts | 264° |
| 2026-05-05 03:22 | -23.22685 | -44.07121 | 4495 ft | 175 kts | 264° |
| 2026-05-05 03:23 | -23.22847 | -44.08437 | 4503 ft | 176 kts | 264° |
| 2026-05-05 03:23 | -23.23010 | -44.09762 | 4504 ft | 178 kts | 264° |
| 2026-05-05 03:23 | -23.23172 | -44.11096 | 4502 ft | 178 kts | 264° |
| 2026-05-05 03:23 | -23.23332 | -44.12430 | 4504 ft | 178 kts | 264° |
| 2026-05-05 03:24 | -23.23489 | -44.13764 | 4502 ft | 178 kts | 264° |
| 2026-05-05 03:24 | -23.23647 | -44.15096 | 4497 ft | 177 kts | 263° |
| 2026-05-05 03:24 | -23.23810 | -44.16421 | 4499 ft | 177 kts | 263° |
| 2026-05-05 03:24 | -23.24023 | -44.17740 | 4497 ft | 177 kts | 261° |
| 2026-05-05 03:25 | -23.24246 | -44.19062 | 4498 ft | 178 kts | 261° |
| 2026-05-05 03:25 | -23.24467 | -44.20384 | 4498 ft | 178 kts | 261° |
| 2026-05-05 03:25 | -23.24688 | -44.21706 | 4495 ft | 178 kts | 261° |
| 2026-05-05 03:25 | -23.24914 | -44.23022 | 4498 ft | 177 kts | 259° |
| 2026-05-05 03:26 | -23.25173 | -44.24329 | 4496 ft | 177 kts | 259° |
| 2026-05-05 03:26 | -23.25435 | -44.25633 | 4498 ft | 177 kts | 259° |
| 2026-05-05 03:26 | -23.25700 | -44.26938 | 4498 ft | 177 kts | 259° |
| 2026-05-05 03:26 | -23.25961 | -44.28245 | 4496 ft | 177 kts | 258° |
| 2026-05-05 03:27 | -23.26224 | -44.29551 | 4497 ft | 177 kts | 259° |
| 2026-05-05 03:27 | -23.26484 | -44.30858 | 4496 ft | 177 kts | 259° |
| 2026-05-05 03:27 | -23.26740 | -44.32166 | 4497 ft | 177 kts | 259° |
| 2026-05-05 03:27 | -23.26996 | -44.33470 | 4495 ft | 176 kts | 259° |
| 2026-05-05 03:28 | -23.27251 | -44.34769 | 4495 ft | 176 kts | 259° |
| 2026-05-05 03:28 | -23.27508 | -44.36066 | 4494 ft | 175 kts | 259° |
| 2026-05-05 03:28 | -23.27765 | -44.37363 | 4496 ft | 176 kts | 259° |
| 2026-05-05 03:28 | -23.28020 | -44.38663 | 4495 ft | 176 kts | 259° |
| 2026-05-05 03:29 | -23.28238 | -44.39776 | 4496 ft | 176 kts | 259° |
| 2026-05-05 03:29 | -23.28493 | -44.41079 | 4497 ft | 176 kts | 259° |
| 2026-05-05 03:29 | -23.28855 | -44.42351 | 4500 ft | 177 kts | 249° |
| 2026-05-05 03:29 | -23.29318 | -44.43586 | 4495 ft | 176 kts | 249° |
| 2026-05-05 03:30 | -23.29760 | -44.44807 | 4498 ft | 176 kts | 250° |
| 2026-05-05 03:30 | -23.30201 | -44.46046 | 4495 ft | 176 kts | 250° |
| 2026-05-05 03:30 | -23.30643 | -44.47288 | 4497 ft | 176 kts | 250° |
| 2026-05-05 03:30 | -23.31082 | -44.48531 | 4497 ft | 176 kts | 250° |
| 2026-05-05 03:31 | -23.31523 | -44.49777 | 4493 ft | 176 kts | 250° |
| 2026-05-05 03:31 | -23.31964 | -44.51017 | 4492 ft | 176 kts | 250° |
| 2026-05-05 03:31 | -23.32403 | -44.52255 | 4495 ft | 175 kts | 250° |
| 2026-05-05 03:31 | -23.32843 | -44.53493 | 4493 ft | 175 kts | 250° |
| 2026-05-05 03:32 | -23.33282 | -44.54730 | 4495 ft | 175 kts | 250° |
| 2026-05-05 03:32 | -23.33722 | -44.55970 | 4495 ft | 176 kts | 250° |
| 2026-05-05 03:32 | -23.34163 | -44.57212 | 4486 ft | 176 kts | 250° |
| 2026-05-05 03:32 | -23.34601 | -44.58458 | 4493 ft | 177 kts | 250° |
| 2026-05-05 03:33 | -23.35035 | -44.59706 | 4493 ft | 176 kts | 250° |
| 2026-05-05 03:33 | -23.35472 | -44.60952 | 4490 ft | 176 kts | 250° |
| 2026-05-05 03:33 | -23.35907 | -44.62195 | 4491 ft | 175 kts | 250° |
| 2026-05-05 03:33 | -23.36343 | -44.63433 | 4490 ft | 175 kts | 250° |
| 2026-05-05 03:34 | -23.36779 | -44.64674 | 4489 ft | 176 kts | 250° |
| 2026-05-05 03:34 | -23.37218 | -44.65914 | 4490 ft | 176 kts | 250° |
| 2026-05-05 03:34 | -23.37658 | -44.67156 | 4491 ft | 176 kts | 250° |
| 2026-05-05 03:34 | -23.38094 | -44.68398 | 4487 ft | 176 kts | 250° |
| 2026-05-05 03:35 | -23.38527 | -44.69641 | 4491 ft | 175 kts | 250° |
| 2026-05-05 03:35 | -23.38964 | -44.70879 | 4490 ft | 175 kts | 250° |
| 2026-05-05 03:35 | -23.39399 | -44.72116 | 4490 ft | 175 kts | 250° |
| 2026-05-05 03:35 | -23.39834 | -44.73353 | 4489 ft | 175 kts | 250° |
| 2026-05-05 03:36 | -23.40268 | -44.74588 | 4490 ft | 175 kts | 250° |
| 2026-05-05 03:36 | -23.40701 | -44.75825 | 4491 ft | 175 kts | 250° |
| 2026-05-05 03:36 | -23.41135 | -44.77063 | 4488 ft | 175 kts | 250° |
| 2026-05-05 03:36 | -23.41569 | -44.78300 | 4492 ft | 175 kts | 250° |
| 2026-05-05 03:37 | -23.41996 | -44.79515 | 4492 ft | 174 kts | 251° |
| 2026-05-05 03:37 | -23.42432 | -44.80745 | 4491 ft | 174 kts | 250° |
| 2026-05-05 03:37 | -23.42866 | -44.81977 | 4489 ft | 175 kts | 250° |
| 2026-05-05 03:37 | -23.43299 | -44.83212 | 4491 ft | 175 kts | 250° |
| 2026-05-05 03:38 | -23.43735 | -44.84451 | 4491 ft | 175 kts | 251° |
| 2026-05-05 03:38 | -23.44169 | -44.85694 | 4491 ft | 175 kts | 250° |
| 2026-05-05 03:38 | -23.44602 | -44.86931 | 4495 ft | 175 kts | 250° |
| 2026-05-05 03:38 | -23.45033 | -44.88166 | 4491 ft | 174 kts | 250° |
| 2026-05-05 03:39 | -23.45407 | -44.89418 | 4492 ft | 174 kts | 254° |
| 2026-05-05 03:39 | -23.45758 | -44.90678 | 4492 ft | 174 kts | 254° |
| 2026-05-05 03:39 | -23.46108 | -44.91945 | 4494 ft | 175 kts | 254° |
| 2026-05-05 03:39 | -23.46461 | -44.93216 | 4493 ft | 176 kts | 254° |
| 2026-05-05 03:40 | -23.46811 | -44.94492 | 4492 ft | 176 kts | 254° |
| 2026-05-05 03:40 | -23.47159 | -44.95767 | 4491 ft | 176 kts | 254° |
| 2026-05-05 03:40 | -23.47506 | -44.97044 | 4491 ft | 176 kts | 254° |
| 2026-05-05 03:40 | -23.47853 | -44.98317 | 4495 ft | 176 kts | 254° |
| 2026-05-05 03:41 | -23.48200 | -44.99581 | 4577 ft | 172 kts | 254° |
| 2026-05-05 03:41 | -23.48539 | -45.00814 | 4669 ft | 169 kts | 254° |
| 2026-05-05 03:41 | -23.48872 | -45.02034 | 4765 ft | 167 kts | 254° |
| 2026-05-05 03:41 | -23.49204 | -45.03244 | 4866 ft | 166 kts | 254° |
| 2026-05-05 03:42 | -23.49534 | -45.04448 | 4954 ft | 166 kts | 254° |
| 2026-05-05 03:42 | -23.49863 | -45.05649 | 5057 ft | 165 kts | 254° |
| 2026-05-05 03:42 | -23.50189 | -45.06848 | 5151 ft | 165 kts | 254° |
| 2026-05-05 03:42 | -23.50514 | -45.08047 | 5247 ft | 165 kts | 254° |
| 2026-05-05 03:43 | -23.50694 | -45.09273 | 5339 ft | 165 kts | 268° |
| 2026-05-05 03:43 | -23.50727 | -45.10522 | 5435 ft | 165 kts | 268° |
| 2026-05-05 03:43 | -23.50758 | -45.11771 | 5496 ft | 167 kts | 268° |
| 2026-05-05 03:43 | -23.50789 | -45.13053 | 5503 ft | 171 kts | 268° |
| 2026-05-05 03:44 | -23.50821 | -45.14342 | 5505 ft | 173 kts | 268° |
| 2026-05-05 03:44 | -23.50851 | -45.15655 | 5509 ft | 174 kts | 268° |
| 2026-05-05 03:44 | -23.50882 | -45.16969 | 5513 ft | 174 kts | 268° |
| 2026-05-05 03:44 | -23.50915 | -45.18284 | 5509 ft | 173 kts | 268° |
| 2026-05-05 03:45 | -23.50943 | -45.19600 | 5517 ft | 175 kts | 269° |
| 2026-05-05 03:45 | -23.50978 | -45.20923 | 5509 ft | 174 kts | 269° |
| 2026-05-05 03:45 | -23.51016 | -45.22238 | 5516 ft | 174 kts | 268° |
| 2026-05-05 03:45 | -23.51052 | -45.23560 | 5515 ft | 175 kts | 268° |
| 2026-05-05 03:46 | -23.51087 | -45.24885 | 5519 ft | 175 kts | 269° |
| 2026-05-05 03:46 | -23.51118 | -45.26213 | 5514 ft | 176 kts | 269° |
| 2026-05-05 03:46 | -23.51156 | -45.27541 | 5516 ft | 174 kts | 268° |
| 2026-05-05 03:46 | -23.51198 | -45.28869 | 5514 ft | 176 kts | 268° |
| 2026-05-05 03:47 | -23.51228 | -45.30200 | 5508 ft | 175 kts | 269° |
| 2026-05-05 03:47 | -23.51262 | -45.31519 | 5509 ft | 174 kts | 268° |
| 2026-05-05 03:47 | -23.51296 | -45.32841 | 5509 ft | 174 kts | 268° |
| 2026-05-05 03:47 | -23.51333 | -45.34161 | 5509 ft | 175 kts | 268° |
| 2026-05-05 03:48 | -23.51368 | -45.35484 | 5504 ft | 174 kts | 268° |
| 2026-05-05 03:48 | -23.51401 | -45.36806 | 5509 ft | 175 kts | 268° |
| 2026-05-05 03:48 | -23.51452 | -45.38127 | 5515 ft | 175 kts | 268° |
| 2026-05-05 03:48 | -23.51489 | -45.39457 | 5486 ft | 176 kts | 269° |
| 2026-05-05 03:49 | -23.51521 | -45.40805 | 5446 ft | 180 kts | 269° |
| 2026-05-05 03:49 | -23.51558 | -45.42180 | 5445 ft | 183 kts | 268° |
| 2026-05-05 03:49 | -23.51602 | -45.43559 | 5425 ft | 181 kts | 268° |
| 2026-05-05 03:49 | -23.51647 | -45.44921 | 5428 ft | 179 kts | 268° |
| 2026-05-05 03:50 | -23.51688 | -45.46283 | 5429 ft | 180 kts | 268° |
| 2026-05-05 03:50 | -23.51736 | -45.47643 | 5425 ft | 179 kts | 268° |
| 2026-05-05 03:50 | -23.51778 | -45.48999 | 5432 ft | 179 kts | 269° |
| 2026-05-05 03:50 | -23.51820 | -45.50353 | 5423 ft | 178 kts | 269° |
| 2026-05-05 03:51 | -23.51859 | -45.51694 | 5426 ft | 177 kts | 269° |
| 2026-05-05 03:51 | -23.51894 | -45.53041 | 5424 ft | 178 kts | 269° |
| 2026-05-05 03:51 | -23.51938 | -45.54387 | 5424 ft | 178 kts | 268° |
| 2026-05-05 03:51 | -23.51978 | -45.55735 | 5423 ft | 178 kts | 268° |
| 2026-05-05 03:52 | -23.52021 | -45.57072 | 5428 ft | 176 kts | 269° |
| 2026-05-05 03:52 | -23.52062 | -45.58406 | 5421 ft | 176 kts | 268° |
| 2026-05-05 03:52 | -23.52097 | -45.59735 | 5420 ft | 175 kts | 269° |
| 2026-05-05 03:52 | -23.52135 | -45.61064 | 5424 ft | 176 kts | 269° |
| 2026-05-05 03:53 | -23.52170 | -45.62397 | 5427 ft | 176 kts | 268° |
| 2026-05-05 03:53 | -23.52208 | -45.63731 | 5422 ft | 176 kts | 268° |
| 2026-05-05 03:53 | -23.52246 | -45.65061 | 5424 ft | 175 kts | 268° |
| 2026-05-05 03:53 | -23.52283 | -45.66390 | 5429 ft | 176 kts | 268° |
| 2026-05-05 03:54 | -23.52325 | -45.67723 | 5428 ft | 176 kts | 268° |
| 2026-05-05 03:54 | -23.52370 | -45.69044 | 5431 ft | 177 kts | 268° |
| 2026-05-05 03:54 | -23.52413 | -45.70379 | 5429 ft | 176 kts | 268° |
| 2026-05-05 03:54 | -23.52455 | -45.71732 | 5431 ft | 177 kts | 269° |
| 2026-05-05 03:55 | -23.52496 | -45.73065 | 5440 ft | 179 kts | 268° |
| 2026-05-05 03:55 | -23.52538 | -45.74397 | 5497 ft | 175 kts | 269° |
| 2026-05-05 03:55 | -23.52576 | -45.75727 | 5498 ft | 171 kts | 269° |
| 2026-05-05 03:55 | -23.52613 | -45.76973 | 5504 ft | 168 kts | 268° |
| 2026-05-05 03:56 | -23.52660 | -45.78274 | 5497 ft | 173 kts | 268° |
| 2026-05-05 03:56 | -23.52701 | -45.79604 | 5453 ft | 179 kts | 268° |
| 2026-05-05 03:56 | -23.52745 | -45.80986 | 5337 ft | 184 kts | 269° |
| 2026-05-05 03:56 | -23.52795 | -45.82393 | 5223 ft | 187 kts | 268° |
| 2026-05-05 03:57 | -23.52913 | -45.83803 | 5111 ft | 188 kts | 263° |
| 2026-05-05 03:57 | -23.53153 | -45.85213 | 4989 ft | 190 kts | 260° |
| 2026-05-05 03:57 | -23.53403 | -45.86629 | 4871 ft | 191 kts | 260° |
| 2026-05-05 03:57 | -23.53657 | -45.88047 | 4749 ft | 191 kts | 260° |
| 2026-05-05 03:58 | -23.53910 | -45.89466 | 4613 ft | 190 kts | 261° |
| 2026-05-05 03:58 | -23.54157 | -45.90886 | 4503 ft | 192 kts | 261° |
| 2026-05-05 03:58 | -23.54422 | -45.92318 | 4379 ft | 193 kts | 261° |
| 2026-05-05 03:58 | -23.54684 | -45.93764 | 4248 ft | 194 kts | 260° |
| 2026-05-05 03:59 | -23.54941 | -45.95210 | 4128 ft | 195 kts | 261° |
| 2026-05-05 03:59 | -23.55194 | -45.96653 | 4000 ft | 193 kts | 260° |
| 2026-05-05 03:59 | -23.55445 | -45.98088 | 3875 ft | 192 kts | 261° |
| 2026-05-05 03:59 | -23.55685 | -45.99472 | 3747 ft | 179 kts | 261° |
| 2026-05-05 04:00 | -23.55923 | -46.00757 | 3612 ft | 168 kts | 261° |
| 2026-05-05 04:00 | -23.56145 | -46.01984 | 3480 ft | 163 kts | 261° |
| 2026-05-05 04:00 | -23.56354 | -46.03175 | 3382 ft | 154 kts | 269° |
| 2026-05-05 04:00 | -23.56217 | -46.04281 | 3378 ft | 143 kts | 288° |
| 2026-05-05 04:01 | -23.55981 | -46.05312 | 3379 ft | 139 kts | 287° |
| 2026-05-05 04:01 | -23.55702 | -46.06298 | 3383 ft | 133 kts | 293° |
| 2026-05-05 04:01 | -23.55406 | -46.07231 | 3381 ft | 128 kts | 292° |
| 2026-05-05 04:01 | -23.55141 | -46.08103 | 3380 ft | 117 kts | 292° |
| 2026-05-05 04:02 | -23.54905 | -46.08943 | 3381 ft | 116 kts | 292° |
| 2026-05-05 04:02 | -23.54665 | -46.09770 | 3388 ft | 115 kts | 292° |
| 2026-05-05 04:02 | -23.54744 | -46.10626 | 3390 ft | 121 kts | 236° |
| 2026-05-05 04:02 | -23.55479 | -46.10803 | 3263 ft | 123 kts | 135° |
| 2026-05-05 04:03 | -23.55594 | -46.09994 | 3073 ft | 102 kts | 78° |
| 2026-05-05 04:03 | -23.55606 | -46.09236 | 2872 ft | 100 kts | 104° |
| 2026-05-05 04:03 | -23.55846 | -46.08530 | 2694 ft | 100 kts | 107° |
| 2026-05-05 04:03 | -23.56094 | -46.07838 | 2528 ft | 97 kts | 108° |
| 2026-05-05 04:04 | -23.56306 | -46.07217 | 2462 ft | 68 kts | 109° |
| 2026-05-05 04:04 | -23.56422 | -46.06879 | 2456 ft | 33 kts | 108° |
| 2026-05-05 04:04 | -23.56467 | -46.06772 | 2458 ft | 8 kts | 166° |
| 2026-05-05 04:04 | -23.56520 | -46.06784 | 2458 ft | 0 kts | 198° |
| 2026-05-05 04:05 | -23.56542 | -46.06791 | 2458 ft | 9 kts | 202° |
| 2026-05-05 04:05 | -23.56569 | -46.06786 | 2462 ft | 4 kts | 25° |
| 2026-05-05 04:05 | -23.56560 | -46.06789 | 2459 ft | 0 kts | 309° |